<?xml version="1.0" encoding="UTF-8" standalone="no" ?>
<gpx xmlns="http://www.topografix.com/GPX/1/1" xmlns:xsi="http://www.w3.org/2001/XMLSchema-instance" xsi:schemaLocation="http://www.topografix.com/GPX/1/1 http://www.topografix.com/GPX/1/1/gpx.xsd" version="1.1" creator="VisuGPX - https://www.visugpx.com">
  <metadata>
    <name>Dimanche 17 Octobre 2010</name>
    <desc><![CDATA[Dimanche 17 Octobre 2010]]></desc>
  </metadata>
  <wpt lat="47.18442" lon="-1.64896">
    <ele>4.6015625</ele>
    <name><![CDATA[017]]></name>
  </wpt>
  <trk>
    <name><![CDATA[17 OCT 2010]]></name>
    <trkseg>
      <trkpt lat="47.17717" lon="-1.62261">
        <ele>27.5349121</ele>
        <time>2010-10-17T06:43:58Z</time>
      </trkpt>
      <trkpt lat="47.17743" lon="-1.62305">
        <ele>26.0928955</ele>
        <time>2010-10-17T06:44:25Z</time>
      </trkpt>
      <trkpt lat="47.17789" lon="-1.6232">
        <ele>27.0543213</ele>
        <time>2010-10-17T06:44:39Z</time>
      </trkpt>
      <trkpt lat="47.17833" lon="-1.62348">
        <ele>27.5349121</ele>
        <time>2010-10-17T06:44:52Z</time>
      </trkpt>
      <trkpt lat="47.17872" lon="-1.62329">
        <ele>28.0155029</ele>
        <time>2010-10-17T06:45:05Z</time>
      </trkpt>
      <trkpt lat="47.17918" lon="-1.62315">
        <ele>25.6123047</ele>
        <time>2010-10-17T06:45:17Z</time>
      </trkpt>
      <trkpt lat="47.17954" lon="-1.62341">
        <ele>24.651001</ele>
        <time>2010-10-17T06:45:31Z</time>
      </trkpt>
      <trkpt lat="47.17999" lon="-1.62345">
        <ele>20.3249512</ele>
        <time>2010-10-17T06:45:46Z</time>
      </trkpt>
      <trkpt lat="47.18047" lon="-1.62327">
        <ele>16.4797363</ele>
        <time>2010-10-17T06:45:57Z</time>
      </trkpt>
      <trkpt lat="47.18087" lon="-1.62291">
        <ele>10.2312012</ele>
        <time>2010-10-17T06:46:08Z</time>
      </trkpt>
      <trkpt lat="47.18074" lon="-1.62232">
        <ele>8.3085938</ele>
        <time>2010-10-17T06:46:18Z</time>
      </trkpt>
      <trkpt lat="47.18107" lon="-1.62187">
        <ele>6.3858643</ele>
        <time>2010-10-17T06:46:28Z</time>
      </trkpt>
      <trkpt lat="47.18135" lon="-1.62241">
        <ele>6.8664551</ele>
        <time>2010-10-17T06:46:39Z</time>
      </trkpt>
      <trkpt lat="47.18151" lon="-1.62299">
        <ele>5.4245605</ele>
        <time>2010-10-17T06:46:49Z</time>
      </trkpt>
      <trkpt lat="47.18167" lon="-1.62359">
        <ele>5.4245605</ele>
        <time>2010-10-17T06:46:58Z</time>
      </trkpt>
      <trkpt lat="47.18194" lon="-1.62412">
        <ele>5.4245605</ele>
        <time>2010-10-17T06:47:07Z</time>
      </trkpt>
      <trkpt lat="47.18223" lon="-1.62467">
        <ele>5.4245605</ele>
        <time>2010-10-17T06:47:17Z</time>
      </trkpt>
      <trkpt lat="47.18265" lon="-1.62467">
        <ele>4.4632568</ele>
        <time>2010-10-17T06:47:28Z</time>
      </trkpt>
      <trkpt lat="47.18308" lon="-1.62432">
        <ele>4.4632568</ele>
        <time>2010-10-17T06:47:39Z</time>
      </trkpt>
      <trkpt lat="47.18345" lon="-1.62384">
        <ele>4.4632568</ele>
        <time>2010-10-17T06:47:49Z</time>
      </trkpt>
      <trkpt lat="47.1839" lon="-1.62364">
        <ele>3.5019531</ele>
        <time>2010-10-17T06:47:59Z</time>
      </trkpt>
      <trkpt lat="47.18419" lon="-1.6231">
        <ele>3.0212402</ele>
        <time>2010-10-17T06:48:10Z</time>
      </trkpt>
      <trkpt lat="47.18444" lon="-1.62351">
        <ele>4.9438477</ele>
        <time>2010-10-17T06:48:25Z</time>
      </trkpt>
      <trkpt lat="47.18446" lon="-1.62421">
        <ele>5.9052734</ele>
        <time>2010-10-17T06:48:35Z</time>
      </trkpt>
      <trkpt lat="47.18445" lon="-1.62496">
        <ele>5.9052734</ele>
        <time>2010-10-17T06:48:44Z</time>
      </trkpt>
      <trkpt lat="47.18443" lon="-1.62564">
        <ele>6.8664551</ele>
        <time>2010-10-17T06:48:53Z</time>
      </trkpt>
      <trkpt lat="47.18438" lon="-1.62635">
        <ele>7.8278809</ele>
        <time>2010-10-17T06:49:02Z</time>
      </trkpt>
      <trkpt lat="47.18432" lon="-1.62705">
        <ele>8.3085938</ele>
        <time>2010-10-17T06:49:10Z</time>
      </trkpt>
      <trkpt lat="47.18422" lon="-1.62777">
        <ele>7.347168</ele>
        <time>2010-10-17T06:49:18Z</time>
      </trkpt>
      <trkpt lat="47.18409" lon="-1.62846">
        <ele>6.8664551</ele>
        <time>2010-10-17T06:49:27Z</time>
      </trkpt>
      <trkpt lat="47.18396" lon="-1.62912">
        <ele>7.347168</ele>
        <time>2010-10-17T06:49:36Z</time>
      </trkpt>
      <trkpt lat="47.18402" lon="-1.62981">
        <ele>9.2698975</ele>
        <time>2010-10-17T06:49:46Z</time>
      </trkpt>
      <trkpt lat="47.18439" lon="-1.63027">
        <ele>9.7506104</ele>
        <time>2010-10-17T06:49:55Z</time>
      </trkpt>
      <trkpt lat="47.18475" lon="-1.63073">
        <ele>12.1538086</ele>
        <time>2010-10-17T06:50:05Z</time>
      </trkpt>
      <trkpt lat="47.1851" lon="-1.63118">
        <ele>12.6343994</ele>
        <time>2010-10-17T06:50:15Z</time>
      </trkpt>
      <trkpt lat="47.1855" lon="-1.63166">
        <ele>11.1925049</ele>
        <time>2010-10-17T06:50:26Z</time>
      </trkpt>
      <trkpt lat="47.18558" lon="-1.63234">
        <ele>9.7506104</ele>
        <time>2010-10-17T06:50:38Z</time>
      </trkpt>
      <trkpt lat="47.18595" lon="-1.63284">
        <ele>8.3085938</ele>
        <time>2010-10-17T06:50:48Z</time>
      </trkpt>
      <trkpt lat="47.18624" lon="-1.63338">
        <ele>6.8664551</ele>
        <time>2010-10-17T06:50:58Z</time>
      </trkpt>
      <trkpt lat="47.18651" lon="-1.634">
        <ele>5.9052734</ele>
        <time>2010-10-17T06:51:08Z</time>
      </trkpt>
      <trkpt lat="47.18683" lon="-1.63451">
        <ele>6.8664551</ele>
        <time>2010-10-17T06:51:17Z</time>
      </trkpt>
      <trkpt lat="47.18711" lon="-1.63503">
        <ele>7.347168</ele>
        <time>2010-10-17T06:51:26Z</time>
      </trkpt>
      <trkpt lat="47.18739" lon="-1.63563">
        <ele>7.8278809</ele>
        <time>2010-10-17T06:51:36Z</time>
      </trkpt>
      <trkpt lat="47.18762" lon="-1.63621">
        <ele>7.347168</ele>
        <time>2010-10-17T06:51:45Z</time>
      </trkpt>
      <trkpt lat="47.18786" lon="-1.63685">
        <ele>6.3858643</ele>
        <time>2010-10-17T06:51:55Z</time>
      </trkpt>
      <trkpt lat="47.18809" lon="-1.63745">
        <ele>6.3858643</ele>
        <time>2010-10-17T06:52:04Z</time>
      </trkpt>
      <trkpt lat="47.18831" lon="-1.63804">
        <ele>5.9052734</ele>
        <time>2010-10-17T06:52:13Z</time>
      </trkpt>
      <trkpt lat="47.18857" lon="-1.63861">
        <ele>5.4245605</ele>
        <time>2010-10-17T06:52:22Z</time>
      </trkpt>
      <trkpt lat="47.18889" lon="-1.63914">
        <ele>5.9052734</ele>
        <time>2010-10-17T06:52:31Z</time>
      </trkpt>
      <trkpt lat="47.18922" lon="-1.63968">
        <ele>5.9052734</ele>
        <time>2010-10-17T06:52:41Z</time>
      </trkpt>
      <trkpt lat="47.18956" lon="-1.64024">
        <ele>5.4245605</ele>
        <time>2010-10-17T06:52:51Z</time>
      </trkpt>
      <trkpt lat="47.18986" lon="-1.64074">
        <ele>5.4245605</ele>
        <time>2010-10-17T06:53:00Z</time>
      </trkpt>
      <trkpt lat="47.19017" lon="-1.64123">
        <ele>5.4245605</ele>
        <time>2010-10-17T06:53:09Z</time>
      </trkpt>
      <trkpt lat="47.19049" lon="-1.64172">
        <ele>5.9052734</ele>
        <time>2010-10-17T06:53:20Z</time>
      </trkpt>
      <trkpt lat="47.19043" lon="-1.6424">
        <ele>5.4245605</ele>
        <time>2010-10-17T06:53:32Z</time>
      </trkpt>
      <trkpt lat="47.19034" lon="-1.64306">
        <ele>5.4245605</ele>
        <time>2010-10-17T06:53:44Z</time>
      </trkpt>
      <trkpt lat="47.19066" lon="-1.64338">
        <ele>7.347168</ele>
        <time>2010-10-17T06:54:02Z</time>
      </trkpt>
      <trkpt lat="47.19057" lon="-1.64404">
        <ele>7.347168</ele>
        <time>2010-10-17T06:54:12Z</time>
      </trkpt>
      <trkpt lat="47.19021" lon="-1.64425">
        <ele>7.347168</ele>
        <time>2010-10-17T06:54:24Z</time>
      </trkpt>
      <trkpt lat="47.19" lon="-1.64484">
        <ele>8.7891846</ele>
        <time>2010-10-17T06:54:35Z</time>
      </trkpt>
      <trkpt lat="47.18999" lon="-1.64551">
        <ele>8.3085938</ele>
        <time>2010-10-17T06:54:45Z</time>
      </trkpt>
      <trkpt lat="47.19006" lon="-1.64618">
        <ele>7.8278809</ele>
        <time>2010-10-17T06:54:57Z</time>
      </trkpt>
      <trkpt lat="47.19009" lon="-1.64687">
        <ele>5.4245605</ele>
        <time>2010-10-17T06:55:09Z</time>
      </trkpt>
      <trkpt lat="47.19018" lon="-1.64752">
        <ele>3.5019531</ele>
        <time>2010-10-17T06:55:19Z</time>
      </trkpt>
      <trkpt lat="47.19022" lon="-1.64816">
        <ele>2.0600586</ele>
        <time>2010-10-17T06:55:42Z</time>
      </trkpt>
      <trkpt lat="47.19018" lon="-1.64882">
        <ele>2.0600586</ele>
        <time>2010-10-17T06:55:50Z</time>
      </trkpt>
      <trkpt lat="47.19005" lon="-1.64952">
        <ele>4.4632568</ele>
        <time>2010-10-17T06:56:01Z</time>
      </trkpt>
      <trkpt lat="47.19003" lon="-1.65021">
        <ele>2.0600586</ele>
        <time>2010-10-17T06:56:10Z</time>
      </trkpt>
      <trkpt lat="47.1902" lon="-1.6508">
        <ele>2.5406494</ele>
        <time>2010-10-17T06:56:24Z</time>
      </trkpt>
      <trkpt lat="47.19007" lon="-1.65143">
        <ele>3.0212402</ele>
        <time>2010-10-17T06:56:36Z</time>
      </trkpt>
      <trkpt lat="47.19012" lon="-1.65207">
        <ele>3.982666</ele>
        <time>2010-10-17T06:56:49Z</time>
      </trkpt>
      <trkpt lat="47.19012" lon="-1.65264">
        <ele>4.9438477</ele>
        <time>2010-10-17T06:57:05Z</time>
      </trkpt>
      <trkpt lat="47.18966" lon="-1.65273">
        <ele>6.3858643</ele>
        <time>2010-10-17T06:57:18Z</time>
      </trkpt>
      <trkpt lat="47.18918" lon="-1.65252">
        <ele>5.9052734</ele>
        <time>2010-10-17T06:57:27Z</time>
      </trkpt>
      <trkpt lat="47.1887" lon="-1.65226">
        <ele>6.3858643</ele>
        <time>2010-10-17T06:57:37Z</time>
      </trkpt>
      <trkpt lat="47.18826" lon="-1.65194">
        <ele>5.9052734</ele>
        <time>2010-10-17T06:57:46Z</time>
      </trkpt>
      <trkpt lat="47.18784" lon="-1.65157">
        <ele>5.9052734</ele>
        <time>2010-10-17T06:57:56Z</time>
      </trkpt>
      <trkpt lat="47.1874" lon="-1.65132">
        <ele>4.4632568</ele>
        <time>2010-10-17T06:58:04Z</time>
      </trkpt>
      <trkpt lat="47.18692" lon="-1.65112">
        <ele>4.4632568</ele>
        <time>2010-10-17T06:58:12Z</time>
      </trkpt>
      <trkpt lat="47.18643" lon="-1.65089">
        <ele>3.982666</ele>
        <time>2010-10-17T06:58:22Z</time>
      </trkpt>
      <trkpt lat="47.18595" lon="-1.65071">
        <ele>3.982666</ele>
        <time>2010-10-17T06:58:32Z</time>
      </trkpt>
      <trkpt lat="47.18553" lon="-1.65042">
        <ele>3.5019531</ele>
        <time>2010-10-17T06:58:42Z</time>
      </trkpt>
      <trkpt lat="47.18506" lon="-1.65">
        <ele>3.0212402</ele>
        <time>2010-10-17T06:58:53Z</time>
      </trkpt>
      <trkpt lat="47.18468" lon="-1.6496">
        <ele>2.5406494</ele>
        <time>2010-10-17T06:59:02Z</time>
      </trkpt>
      <trkpt lat="47.18441" lon="-1.64896">
        <ele>0.618042</ele>
        <time>2010-10-17T06:59:15Z</time>
      </trkpt>
      <trkpt lat="47.18418" lon="-1.6494">
        <ele>2.0600586</ele>
        <time>2010-10-17T06:59:29Z</time>
      </trkpt>
      <trkpt lat="47.18392" lon="-1.64996">
        <ele>2.5406494</ele>
        <time>2010-10-17T06:59:42Z</time>
      </trkpt>
      <trkpt lat="47.18362" lon="-1.65051">
        <ele>4.4632568</ele>
        <time>2010-10-17T06:59:58Z</time>
      </trkpt>
      <trkpt lat="47.18317" lon="-1.65057">
        <ele>8.7891846</ele>
        <time>2010-10-17T07:00:11Z</time>
      </trkpt>
      <trkpt lat="47.18271" lon="-1.65065">
        <ele>13.5958252</ele>
        <time>2010-10-17T07:00:24Z</time>
      </trkpt>
      <trkpt lat="47.18224" lon="-1.65085">
        <ele>17.9217529</ele>
        <time>2010-10-17T07:00:41Z</time>
      </trkpt>
      <trkpt lat="47.18186" lon="-1.65136">
        <ele>19.3637695</ele>
        <time>2010-10-17T07:00:56Z</time>
      </trkpt>
      <trkpt lat="47.18173" lon="-1.65202">
        <ele>26.0928955</ele>
        <time>2010-10-17T07:01:10Z</time>
      </trkpt>
      <trkpt lat="47.18175" lon="-1.65266">
        <ele>38.109375</ele>
        <time>2010-10-17T07:01:26Z</time>
      </trkpt>
      <trkpt lat="47.18202" lon="-1.65326">
        <ele>40.9934082</ele>
        <time>2010-10-17T07:01:41Z</time>
      </trkpt>
      <trkpt lat="47.18215" lon="-1.65388">
        <ele>41.9547119</ele>
        <time>2010-10-17T07:01:52Z</time>
      </trkpt>
      <trkpt lat="47.1824" lon="-1.6545">
        <ele>43.3966064</ele>
        <time>2010-10-17T07:02:03Z</time>
      </trkpt>
      <trkpt lat="47.18269" lon="-1.6547">
        <ele>41.9547119</ele>
        <time>2010-10-17T07:02:15Z</time>
      </trkpt>
      <trkpt lat="47.18312" lon="-1.65446">
        <ele>38.5900879</ele>
        <time>2010-10-17T07:02:28Z</time>
      </trkpt>
      <trkpt lat="47.18347" lon="-1.65494">
        <ele>38.5900879</ele>
        <time>2010-10-17T07:02:38Z</time>
      </trkpt>
      <trkpt lat="47.18388" lon="-1.65529">
        <ele>38.109375</ele>
        <time>2010-10-17T07:02:49Z</time>
      </trkpt>
      <trkpt lat="47.18433" lon="-1.65547">
        <ele>35.2254639</ele>
        <time>2010-10-17T07:02:57Z</time>
      </trkpt>
      <trkpt lat="47.18465" lon="-1.65596">
        <ele>38.109375</ele>
        <time>2010-10-17T07:03:14Z</time>
      </trkpt>
      <trkpt lat="47.18489" lon="-1.65644">
        <ele>34.2641602</ele>
        <time>2010-10-17T07:06:27Z</time>
      </trkpt>
      <trkpt lat="47.18518" lon="-1.65701">
        <ele>31.8607178</ele>
        <time>2010-10-17T07:06:42Z</time>
      </trkpt>
      <trkpt lat="47.18539" lon="-1.65764">
        <ele>33.3028564</ele>
        <time>2010-10-17T07:06:54Z</time>
      </trkpt>
      <trkpt lat="47.18523" lon="-1.65825">
        <ele>36.1867676</ele>
        <time>2010-10-17T07:07:07Z</time>
      </trkpt>
      <trkpt lat="47.18564" lon="-1.65857">
        <ele>38.5900879</ele>
        <time>2010-10-17T07:07:19Z</time>
      </trkpt>
      <trkpt lat="47.18596" lon="-1.65909">
        <ele>38.5900879</ele>
        <time>2010-10-17T07:07:30Z</time>
      </trkpt>
      <trkpt lat="47.18634" lon="-1.65946">
        <ele>33.7834473</ele>
        <time>2010-10-17T07:07:48Z</time>
      </trkpt>
      <trkpt lat="47.1867" lon="-1.65987">
        <ele>28.4962158</ele>
        <time>2010-10-17T07:08:05Z</time>
      </trkpt>
      <trkpt lat="47.18701" lon="-1.66035">
        <ele>24.651001</ele>
        <time>2010-10-17T07:08:24Z</time>
      </trkpt>
      <trkpt lat="47.18713" lon="-1.66072">
        <ele>27.0543213</ele>
        <time>2010-10-17T07:09:25Z</time>
      </trkpt>
      <trkpt lat="47.18722" lon="-1.66135">
        <ele>25.6123047</ele>
        <time>2010-10-17T07:09:45Z</time>
      </trkpt>
      <trkpt lat="47.18712" lon="-1.66086">
        <ele>25.6123047</ele>
        <time>2010-10-17T07:10:06Z</time>
      </trkpt>
      <trkpt lat="47.18671" lon="-1.66048">
        <ele>28.0155029</ele>
        <time>2010-10-17T07:10:35Z</time>
      </trkpt>
      <trkpt lat="47.1867" lon="-1.66106">
        <ele>28.0155029</ele>
        <time>2010-10-17T07:11:03Z</time>
      </trkpt>
      <trkpt lat="47.18694" lon="-1.66178">
        <ele>24.651001</ele>
        <time>2010-10-17T07:12:12Z</time>
      </trkpt>
      <trkpt lat="47.18742" lon="-1.66219">
        <ele>25.1317139</ele>
        <time>2010-10-17T07:12:30Z</time>
      </trkpt>
      <trkpt lat="47.18781" lon="-1.66276">
        <ele>32.3415527</ele>
        <time>2010-10-17T07:13:14Z</time>
      </trkpt>
      <trkpt lat="47.18783" lon="-1.66354">
        <ele>29.4575195</ele>
        <time>2010-10-17T07:13:30Z</time>
      </trkpt>
      <trkpt lat="47.18765" lon="-1.66426">
        <ele>25.6123047</ele>
        <time>2010-10-17T07:13:40Z</time>
      </trkpt>
      <trkpt lat="47.18768" lon="-1.66491">
        <ele>24.1702881</ele>
        <time>2010-10-17T07:13:52Z</time>
      </trkpt>
      <trkpt lat="47.18775" lon="-1.66558">
        <ele>20.3249512</ele>
        <time>2010-10-17T07:14:04Z</time>
      </trkpt>
      <trkpt lat="47.18785" lon="-1.66627">
        <ele>16.4797363</ele>
        <time>2010-10-17T07:14:20Z</time>
      </trkpt>
      <trkpt lat="47.18793" lon="-1.66696">
        <ele>15.0377197</ele>
        <time>2010-10-17T07:14:33Z</time>
      </trkpt>
      <trkpt lat="47.18806" lon="-1.66761">
        <ele>15.5184326</ele>
        <time>2010-10-17T07:14:44Z</time>
      </trkpt>
      <trkpt lat="47.18823" lon="-1.66823">
        <ele>14.076416</ele>
        <time>2010-10-17T07:14:55Z</time>
      </trkpt>
      <trkpt lat="47.18835" lon="-1.66894">
        <ele>14.5570068</ele>
        <time>2010-10-17T07:15:08Z</time>
      </trkpt>
      <trkpt lat="47.18852" lon="-1.66958">
        <ele>17.4411621</ele>
        <time>2010-10-17T07:15:19Z</time>
      </trkpt>
      <trkpt lat="47.18872" lon="-1.67021">
        <ele>23.6895752</ele>
        <time>2010-10-17T07:15:30Z</time>
      </trkpt>
      <trkpt lat="47.18882" lon="-1.67092">
        <ele>37.6286621</ele>
        <time>2010-10-17T07:15:45Z</time>
      </trkpt>
      <trkpt lat="47.18881" lon="-1.67149">
        <ele>49.1645508</ele>
        <time>2010-10-17T07:16:06Z</time>
      </trkpt>
      <trkpt lat="47.18868" lon="-1.67226">
        <ele>53.0097656</ele>
        <time>2010-10-17T07:16:36Z</time>
      </trkpt>
      <trkpt lat="47.18873" lon="-1.67292">
        <ele>60.7003174</ele>
        <time>2010-10-17T07:17:03Z</time>
      </trkpt>
      <trkpt lat="47.18893" lon="-1.67367">
        <ele>56.3745117</ele>
        <time>2010-10-17T07:17:46Z</time>
      </trkpt>
      <trkpt lat="47.18916" lon="-1.67432">
        <ele>52.5291748</ele>
        <time>2010-10-17T07:18:04Z</time>
      </trkpt>
      <trkpt lat="47.18919" lon="-1.67505">
        <ele>48.2033691</ele>
        <time>2010-10-17T07:18:19Z</time>
      </trkpt>
      <trkpt lat="47.18938" lon="-1.67567">
        <ele>50.6065674</ele>
        <time>2010-10-17T07:18:35Z</time>
      </trkpt>
      <trkpt lat="47.18932" lon="-1.67647">
        <ele>35.7060547</ele>
        <time>2010-10-17T07:19:16Z</time>
      </trkpt>
      <trkpt lat="47.18921" lon="-1.67722">
        <ele>39.0706787</ele>
        <time>2010-10-17T07:19:56Z</time>
      </trkpt>
      <trkpt lat="47.18907" lon="-1.67756">
        <ele>37.6286621</ele>
        <time>2010-10-17T07:20:40Z</time>
      </trkpt>
      <trkpt lat="47.18918" lon="-1.6783">
        <ele>34.744873</ele>
        <time>2010-10-17T07:20:53Z</time>
      </trkpt>
      <trkpt lat="47.18929" lon="-1.67885">
        <ele>32.8222656</ele>
        <time>2010-10-17T07:21:03Z</time>
      </trkpt>
      <trkpt lat="47.18969" lon="-1.67903">
        <ele>30.8995361</ele>
        <time>2010-10-17T07:21:12Z</time>
      </trkpt>
      <trkpt lat="47.18983" lon="-1.67962">
        <ele>32.3415527</ele>
        <time>2010-10-17T07:21:24Z</time>
      </trkpt>
      <trkpt lat="47.18996" lon="-1.68018">
        <ele>36.6674805</ele>
        <time>2010-10-17T07:21:38Z</time>
      </trkpt>
      <trkpt lat="47.19037" lon="-1.68023">
        <ele>32.8222656</ele>
        <time>2010-10-17T07:21:49Z</time>
      </trkpt>
      <trkpt lat="47.19082" lon="-1.68048">
        <ele>29.9381104</ele>
        <time>2010-10-17T07:21:58Z</time>
      </trkpt>
      <trkpt lat="47.19107" lon="-1.68106">
        <ele>29.9381104</ele>
        <time>2010-10-17T07:22:09Z</time>
      </trkpt>
      <trkpt lat="47.19123" lon="-1.68168">
        <ele>29.9381104</ele>
        <time>2010-10-17T07:22:24Z</time>
      </trkpt>
      <trkpt lat="47.19139" lon="-1.68179">
        <ele>15.0377197</ele>
        <time>2010-10-17T07:22:51Z</time>
      </trkpt>
      <trkpt lat="47.19168" lon="-1.68226">
        <ele>5.9052734</ele>
        <time>2010-10-17T07:23:04Z</time>
      </trkpt>
      <trkpt lat="47.19211" lon="-1.68209">
        <ele>5.4245605</ele>
        <time>2010-10-17T07:23:19Z</time>
      </trkpt>
      <trkpt lat="47.19254" lon="-1.68179">
        <ele>4.4632568</ele>
        <time>2010-10-17T07:23:32Z</time>
      </trkpt>
      <trkpt lat="47.19298" lon="-1.68151">
        <ele>5.4245605</ele>
        <time>2010-10-17T07:23:47Z</time>
      </trkpt>
      <trkpt lat="47.1934" lon="-1.68121">
        <ele>6.8664551</ele>
        <time>2010-10-17T07:24:04Z</time>
      </trkpt>
      <trkpt lat="47.19383" lon="-1.68089">
        <ele>7.8278809</ele>
        <time>2010-10-17T07:24:18Z</time>
      </trkpt>
      <trkpt lat="47.19414" lon="-1.68047">
        <ele>7.8278809</ele>
        <time>2010-10-17T07:24:33Z</time>
      </trkpt>
      <trkpt lat="47.19399" lon="-1.67982">
        <ele>5.9052734</ele>
        <time>2010-10-17T07:24:43Z</time>
      </trkpt>
      <trkpt lat="47.19381" lon="-1.67919">
        <ele>5.4245605</ele>
        <time>2010-10-17T07:24:53Z</time>
      </trkpt>
      <trkpt lat="47.19366" lon="-1.67848">
        <ele>4.9438477</ele>
        <time>2010-10-17T07:25:04Z</time>
      </trkpt>
      <trkpt lat="47.19366" lon="-1.67777">
        <ele>5.4245605</ele>
        <time>2010-10-17T07:25:14Z</time>
      </trkpt>
      <trkpt lat="47.19377" lon="-1.67711">
        <ele>5.4245605</ele>
        <time>2010-10-17T07:25:23Z</time>
      </trkpt>
      <trkpt lat="47.19399" lon="-1.67648">
        <ele>5.4245605</ele>
        <time>2010-10-17T07:25:32Z</time>
      </trkpt>
      <trkpt lat="47.19428" lon="-1.67598">
        <ele>5.4245605</ele>
        <time>2010-10-17T07:25:41Z</time>
      </trkpt>
      <trkpt lat="47.19467" lon="-1.67559">
        <ele>5.4245605</ele>
        <time>2010-10-17T07:25:51Z</time>
      </trkpt>
      <trkpt lat="47.1951" lon="-1.67528">
        <ele>3.5019531</ele>
        <time>2010-10-17T07:26:03Z</time>
      </trkpt>
      <trkpt lat="47.19542" lon="-1.67521">
        <ele>2.0600586</ele>
        <time>2010-10-17T07:32:06Z</time>
      </trkpt>
      <trkpt lat="47.19694" lon="-1.67541">
        <ele>11.1925049</ele>
        <time>2010-10-17T07:36:14Z</time>
      </trkpt>
      <trkpt lat="47.19733" lon="-1.6749">
        <ele>3.5019531</ele>
        <time>2010-10-17T07:36:40Z</time>
      </trkpt>
      <trkpt lat="47.19749" lon="-1.67427">
        <ele>0.1374512</ele>
        <time>2010-10-17T07:37:37Z</time>
      </trkpt>
      <trkpt lat="47.19752" lon="-1.67359">
        <ele>4.4632568</ele>
        <time>2010-10-17T07:37:53Z</time>
      </trkpt>
      <trkpt lat="47.19787" lon="-1.6732">
        <ele>6.3858643</ele>
        <time>2010-10-17T07:38:13Z</time>
      </trkpt>
      <trkpt lat="47.19793" lon="-1.67316">
        <ele>4.9438477</ele>
        <time>2010-10-17T07:38:53Z</time>
      </trkpt>
      <trkpt lat="47.19758" lon="-1.67358">
        <ele>4.4632568</ele>
        <time>2010-10-17T07:39:07Z</time>
      </trkpt>
      <trkpt lat="47.19786" lon="-1.6741">
        <ele>4.9438477</ele>
        <time>2010-10-17T07:39:19Z</time>
      </trkpt>
      <trkpt lat="47.19818" lon="-1.67457">
        <ele>4.9438477</ele>
        <time>2010-10-17T07:39:32Z</time>
      </trkpt>
      <trkpt lat="47.19855" lon="-1.67496">
        <ele>4.4632568</ele>
        <time>2010-10-17T07:39:44Z</time>
      </trkpt>
      <trkpt lat="47.19881" lon="-1.6755">
        <ele>5.9052734</ele>
        <time>2010-10-17T07:39:56Z</time>
      </trkpt>
      <trkpt lat="47.19919" lon="-1.67593">
        <ele>5.9052734</ele>
        <time>2010-10-17T07:40:08Z</time>
      </trkpt>
      <trkpt lat="47.19952" lon="-1.67648">
        <ele>5.9052734</ele>
        <time>2010-10-17T07:40:19Z</time>
      </trkpt>
      <trkpt lat="47.19983" lon="-1.67703">
        <ele>5.9052734</ele>
        <time>2010-10-17T07:40:29Z</time>
      </trkpt>
      <trkpt lat="47.20013" lon="-1.67757">
        <ele>6.8664551</ele>
        <time>2010-10-17T07:40:39Z</time>
      </trkpt>
      <trkpt lat="47.20044" lon="-1.6781">
        <ele>5.9052734</ele>
        <time>2010-10-17T07:40:49Z</time>
      </trkpt>
      <trkpt lat="47.20076" lon="-1.67863">
        <ele>5.4245605</ele>
        <time>2010-10-17T07:41:00Z</time>
      </trkpt>
      <trkpt lat="47.20105" lon="-1.67915">
        <ele>5.4245605</ele>
        <time>2010-10-17T07:41:11Z</time>
      </trkpt>
      <trkpt lat="47.20149" lon="-1.67906">
        <ele>7.8278809</ele>
        <time>2010-10-17T07:41:25Z</time>
      </trkpt>
      <trkpt lat="47.20191" lon="-1.6787">
        <ele>13.1151123</ele>
        <time>2010-10-17T07:41:37Z</time>
      </trkpt>
      <trkpt lat="47.2023" lon="-1.67833">
        <ele>12.1538086</ele>
        <time>2010-10-17T07:41:49Z</time>
      </trkpt>
      <trkpt lat="47.20209" lon="-1.67767">
        <ele>8.7891846</ele>
        <time>2010-10-17T07:41:59Z</time>
      </trkpt>
      <trkpt lat="47.20191" lon="-1.67705">
        <ele>8.3085938</ele>
        <time>2010-10-17T07:42:10Z</time>
      </trkpt>
      <trkpt lat="47.20186" lon="-1.6765">
        <ele>10.711792</ele>
        <time>2010-10-17T07:42:27Z</time>
      </trkpt>
      <trkpt lat="47.20184" lon="-1.67577">
        <ele>8.7891846</ele>
        <time>2010-10-17T07:42:37Z</time>
      </trkpt>
      <trkpt lat="47.20181" lon="-1.67512">
        <ele>8.3085938</ele>
        <time>2010-10-17T07:42:46Z</time>
      </trkpt>
      <trkpt lat="47.20207" lon="-1.6747">
        <ele>7.347168</ele>
        <time>2010-10-17T07:42:57Z</time>
      </trkpt>
      <trkpt lat="47.20253" lon="-1.6745">
        <ele>7.347168</ele>
        <time>2010-10-17T07:43:07Z</time>
      </trkpt>
      <trkpt lat="47.20299" lon="-1.67426">
        <ele>7.347168</ele>
        <time>2010-10-17T07:43:18Z</time>
      </trkpt>
      <trkpt lat="47.20342" lon="-1.67434">
        <ele>7.347168</ele>
        <time>2010-10-17T07:43:31Z</time>
      </trkpt>
      <trkpt lat="47.2036" lon="-1.67499">
        <ele>6.3858643</ele>
        <time>2010-10-17T07:43:42Z</time>
      </trkpt>
      <trkpt lat="47.20385" lon="-1.67553">
        <ele>5.4245605</ele>
        <time>2010-10-17T07:43:55Z</time>
      </trkpt>
      <trkpt lat="47.20425" lon="-1.6754">
        <ele>5.4245605</ele>
        <time>2010-10-17T07:44:07Z</time>
      </trkpt>
      <trkpt lat="47.20455" lon="-1.67586">
        <ele>5.4245605</ele>
        <time>2010-10-17T07:44:17Z</time>
      </trkpt>
      <trkpt lat="47.20485" lon="-1.67637">
        <ele>4.9438477</ele>
        <time>2010-10-17T07:44:26Z</time>
      </trkpt>
      <trkpt lat="47.20509" lon="-1.67699">
        <ele>5.4245605</ele>
        <time>2010-10-17T07:44:35Z</time>
      </trkpt>
      <trkpt lat="47.20533" lon="-1.67764">
        <ele>4.9438477</ele>
        <time>2010-10-17T07:44:44Z</time>
      </trkpt>
      <trkpt lat="47.20553" lon="-1.67823">
        <ele>4.4632568</ele>
        <time>2010-10-17T07:44:52Z</time>
      </trkpt>
      <trkpt lat="47.20573" lon="-1.67885">
        <ele>2.5406494</ele>
        <time>2010-10-17T07:45:00Z</time>
      </trkpt>
      <trkpt lat="47.20593" lon="-1.67949">
        <ele>1.0986328</ele>
        <time>2010-10-17T07:45:08Z</time>
      </trkpt>
      <trkpt lat="47.20611" lon="-1.68013">
        <ele>1.5793457</ele>
        <time>2010-10-17T07:45:16Z</time>
      </trkpt>
      <trkpt lat="47.20631" lon="-1.68078">
        <ele>1.5793457</ele>
        <time>2010-10-17T07:45:24Z</time>
      </trkpt>
      <trkpt lat="47.20651" lon="-1.68145">
        <ele>1.5793457</ele>
        <time>2010-10-17T07:45:32Z</time>
      </trkpt>
      <trkpt lat="47.20669" lon="-1.68208">
        <ele>2.0600586</ele>
        <time>2010-10-17T07:45:40Z</time>
      </trkpt>
      <trkpt lat="47.20687" lon="-1.6827">
        <ele>2.5406494</ele>
        <time>2010-10-17T07:45:48Z</time>
      </trkpt>
      <trkpt lat="47.20706" lon="-1.6834">
        <ele>2.0600586</ele>
        <time>2010-10-17T07:45:57Z</time>
      </trkpt>
      <trkpt lat="47.20736" lon="-1.68399">
        <ele>1.5793457</ele>
        <time>2010-10-17T07:46:06Z</time>
      </trkpt>
      <trkpt lat="47.20745" lon="-1.68466">
        <ele>2.0600586</ele>
        <time>2010-10-17T07:46:14Z</time>
      </trkpt>
      <trkpt lat="47.20764" lon="-1.68532">
        <ele>2.5406494</ele>
        <time>2010-10-17T07:46:22Z</time>
      </trkpt>
      <trkpt lat="47.20783" lon="-1.68596">
        <ele>3.0212402</ele>
        <time>2010-10-17T07:46:30Z</time>
      </trkpt>
      <trkpt lat="47.20801" lon="-1.6866">
        <ele>3.0212402</ele>
        <time>2010-10-17T07:46:38Z</time>
      </trkpt>
      <trkpt lat="47.20823" lon="-1.6873">
        <ele>3.5019531</ele>
        <time>2010-10-17T07:46:47Z</time>
      </trkpt>
      <trkpt lat="47.2084" lon="-1.68796">
        <ele>3.5019531</ele>
        <time>2010-10-17T07:46:56Z</time>
      </trkpt>
      <trkpt lat="47.20857" lon="-1.68866">
        <ele>3.982666</ele>
        <time>2010-10-17T07:47:05Z</time>
      </trkpt>
      <trkpt lat="47.20869" lon="-1.68932">
        <ele>3.5019531</ele>
        <time>2010-10-17T07:47:13Z</time>
      </trkpt>
      <trkpt lat="47.20879" lon="-1.68999">
        <ele>3.982666</ele>
        <time>2010-10-17T07:47:21Z</time>
      </trkpt>
      <trkpt lat="47.20886" lon="-1.6907">
        <ele>3.5019531</ele>
        <time>2010-10-17T07:47:29Z</time>
      </trkpt>
      <trkpt lat="47.20892" lon="-1.69141">
        <ele>3.5019531</ele>
        <time>2010-10-17T07:47:37Z</time>
      </trkpt>
      <trkpt lat="47.20898" lon="-1.69214">
        <ele>3.0212402</ele>
        <time>2010-10-17T07:47:45Z</time>
      </trkpt>
      <trkpt lat="47.20903" lon="-1.69286">
        <ele>2.5406494</ele>
        <time>2010-10-17T07:47:53Z</time>
      </trkpt>
      <trkpt lat="47.20909" lon="-1.69359">
        <ele>2.5406494</ele>
        <time>2010-10-17T07:48:01Z</time>
      </trkpt>
      <trkpt lat="47.20914" lon="-1.69429">
        <ele>2.5406494</ele>
        <time>2010-10-17T07:48:09Z</time>
      </trkpt>
      <trkpt lat="47.20919" lon="-1.69504">
        <ele>2.5406494</ele>
        <time>2010-10-17T07:48:17Z</time>
      </trkpt>
      <trkpt lat="47.20924" lon="-1.69572">
        <ele>2.0600586</ele>
        <time>2010-10-17T07:48:25Z</time>
      </trkpt>
      <trkpt lat="47.2093" lon="-1.69643">
        <ele>2.0600586</ele>
        <time>2010-10-17T07:48:33Z</time>
      </trkpt>
      <trkpt lat="47.20934" lon="-1.69713">
        <ele>2.5406494</ele>
        <time>2010-10-17T07:48:41Z</time>
      </trkpt>
      <trkpt lat="47.20939" lon="-1.69782">
        <ele>3.5019531</ele>
        <time>2010-10-17T07:48:49Z</time>
      </trkpt>
      <trkpt lat="47.20944" lon="-1.69852">
        <ele>3.0212402</ele>
        <time>2010-10-17T07:48:57Z</time>
      </trkpt>
      <trkpt lat="47.20946" lon="-1.69921">
        <ele>3.5019531</ele>
        <time>2010-10-17T07:49:05Z</time>
      </trkpt>
      <trkpt lat="47.20943" lon="-1.69987">
        <ele>3.5019531</ele>
        <time>2010-10-17T07:49:13Z</time>
      </trkpt>
      <trkpt lat="47.20949" lon="-1.70054">
        <ele>4.4632568</ele>
        <time>2010-10-17T07:49:21Z</time>
      </trkpt>
      <trkpt lat="47.20953" lon="-1.7012">
        <ele>3.982666</ele>
        <time>2010-10-17T07:49:29Z</time>
      </trkpt>
      <trkpt lat="47.20963" lon="-1.70185">
        <ele>4.4632568</ele>
        <time>2010-10-17T07:49:36Z</time>
      </trkpt>
      <trkpt lat="47.20972" lon="-1.70255">
        <ele>4.4632568</ele>
        <time>2010-10-17T07:49:44Z</time>
      </trkpt>
      <trkpt lat="47.20977" lon="-1.70319">
        <ele>3.982666</ele>
        <time>2010-10-17T07:49:51Z</time>
      </trkpt>
      <trkpt lat="47.20979" lon="-1.70386">
        <ele>4.4632568</ele>
        <time>2010-10-17T07:49:58Z</time>
      </trkpt>
      <trkpt lat="47.20979" lon="-1.70461">
        <ele>4.9438477</ele>
        <time>2010-10-17T07:50:06Z</time>
      </trkpt>
      <trkpt lat="47.20973" lon="-1.70528">
        <ele>4.9438477</ele>
        <time>2010-10-17T07:50:13Z</time>
      </trkpt>
      <trkpt lat="47.20966" lon="-1.70594">
        <ele>4.9438477</ele>
        <time>2010-10-17T07:50:20Z</time>
      </trkpt>
      <trkpt lat="47.20957" lon="-1.7066">
        <ele>4.4632568</ele>
        <time>2010-10-17T07:50:27Z</time>
      </trkpt>
      <trkpt lat="47.20954" lon="-1.70727">
        <ele>3.5019531</ele>
        <time>2010-10-17T07:50:34Z</time>
      </trkpt>
      <trkpt lat="47.20966" lon="-1.70802">
        <ele>3.982666</ele>
        <time>2010-10-17T07:50:42Z</time>
      </trkpt>
      <trkpt lat="47.20986" lon="-1.70872">
        <ele>3.982666</ele>
        <time>2010-10-17T07:50:50Z</time>
      </trkpt>
      <trkpt lat="47.21005" lon="-1.70938">
        <ele>3.982666</ele>
        <time>2010-10-17T07:50:58Z</time>
      </trkpt>
      <trkpt lat="47.21023" lon="-1.71002">
        <ele>3.0212402</ele>
        <time>2010-10-17T07:51:06Z</time>
      </trkpt>
      <trkpt lat="47.21046" lon="-1.71066">
        <ele>2.5406494</ele>
        <time>2010-10-17T07:51:15Z</time>
      </trkpt>
      <trkpt lat="47.21034" lon="-1.71124">
        <ele>3.0212402</ele>
        <time>2010-10-17T07:51:24Z</time>
      </trkpt>
      <trkpt lat="47.21004" lon="-1.71177">
        <ele>2.0600586</ele>
        <time>2010-10-17T07:51:34Z</time>
      </trkpt>
      <trkpt lat="47.20973" lon="-1.71226">
        <ele>1.0986328</ele>
        <time>2010-10-17T07:51:42Z</time>
      </trkpt>
      <trkpt lat="47.2093" lon="-1.7126">
        <ele>1.0986328</ele>
        <time>2010-10-17T07:51:50Z</time>
      </trkpt>
      <trkpt lat="47.20882" lon="-1.71289">
        <ele>2.5406494</ele>
        <time>2010-10-17T07:51:59Z</time>
      </trkpt>
      <trkpt lat="47.20847" lon="-1.71336">
        <ele>3.0212402</ele>
        <time>2010-10-17T07:52:07Z</time>
      </trkpt>
      <trkpt lat="47.20836" lon="-1.71403">
        <ele>2.5406494</ele>
        <time>2010-10-17T07:52:16Z</time>
      </trkpt>
      <trkpt lat="47.20839" lon="-1.71469">
        <ele>3.0212402</ele>
        <time>2010-10-17T07:52:24Z</time>
      </trkpt>
      <trkpt lat="47.20838" lon="-1.71539">
        <ele>5.9052734</ele>
        <time>2010-10-17T07:52:32Z</time>
      </trkpt>
      <trkpt lat="47.20838" lon="-1.71605">
        <ele>7.347168</ele>
        <time>2010-10-17T07:52:39Z</time>
      </trkpt>
      <trkpt lat="47.20841" lon="-1.71679">
        <ele>7.347168</ele>
        <time>2010-10-17T07:52:47Z</time>
      </trkpt>
      <trkpt lat="47.20843" lon="-1.71749">
        <ele>7.8278809</ele>
        <time>2010-10-17T07:52:55Z</time>
      </trkpt>
      <trkpt lat="47.20846" lon="-1.71817">
        <ele>9.2698975</ele>
        <time>2010-10-17T07:53:03Z</time>
      </trkpt>
      <trkpt lat="47.20848" lon="-1.71886">
        <ele>10.711792</ele>
        <time>2010-10-17T07:53:11Z</time>
      </trkpt>
      <trkpt lat="47.20849" lon="-1.71953">
        <ele>13.1151123</ele>
        <time>2010-10-17T07:53:19Z</time>
      </trkpt>
      <trkpt lat="47.2085" lon="-1.72027">
        <ele>16.4797363</ele>
        <time>2010-10-17T07:53:28Z</time>
      </trkpt>
      <trkpt lat="47.20851" lon="-1.72101">
        <ele>19.3637695</ele>
        <time>2010-10-17T07:53:37Z</time>
      </trkpt>
      <trkpt lat="47.20853" lon="-1.72173">
        <ele>23.6895752</ele>
        <time>2010-10-17T07:53:46Z</time>
      </trkpt>
      <trkpt lat="47.20857" lon="-1.72252">
        <ele>27.5349121</ele>
        <time>2010-10-17T07:53:55Z</time>
      </trkpt>
      <trkpt lat="47.20864" lon="-1.7233">
        <ele>28.9769287</ele>
        <time>2010-10-17T07:54:04Z</time>
      </trkpt>
      <trkpt lat="47.20872" lon="-1.72406">
        <ele>24.1702881</ele>
        <time>2010-10-17T07:54:12Z</time>
      </trkpt>
      <trkpt lat="47.20881" lon="-1.7248">
        <ele>21.286377</ele>
        <time>2010-10-17T07:54:21Z</time>
      </trkpt>
      <trkpt lat="47.209" lon="-1.7255">
        <ele>16.4797363</ele>
        <time>2010-10-17T07:54:31Z</time>
      </trkpt>
      <trkpt lat="47.20906" lon="-1.72623">
        <ele>13.1151123</ele>
        <time>2010-10-17T07:54:40Z</time>
      </trkpt>
      <trkpt lat="47.20911" lon="-1.72689">
        <ele>12.1538086</ele>
        <time>2010-10-17T07:54:48Z</time>
      </trkpt>
      <trkpt lat="47.20916" lon="-1.72762">
        <ele>9.7506104</ele>
        <time>2010-10-17T07:54:57Z</time>
      </trkpt>
      <trkpt lat="47.20901" lon="-1.72812">
        <ele>7.8278809</ele>
        <time>2010-10-17T07:55:08Z</time>
      </trkpt>
      <trkpt lat="47.20883" lon="-1.72857">
        <ele>6.3858643</ele>
        <time>2010-10-17T07:55:22Z</time>
      </trkpt>
      <trkpt lat="47.20899" lon="-1.72915">
        <ele>5.4245605</ele>
        <time>2010-10-17T07:55:34Z</time>
      </trkpt>
      <trkpt lat="47.20924" lon="-1.7297">
        <ele>4.9438477</ele>
        <time>2010-10-17T07:55:44Z</time>
      </trkpt>
      <trkpt lat="47.2094" lon="-1.73038">
        <ele>5.4245605</ele>
        <time>2010-10-17T07:55:55Z</time>
      </trkpt>
      <trkpt lat="47.20956" lon="-1.73099">
        <ele>3.982666</ele>
        <time>2010-10-17T07:56:10Z</time>
      </trkpt>
      <trkpt lat="47.20989" lon="-1.73137">
        <ele>3.0212402</ele>
        <time>2010-10-17T07:56:27Z</time>
      </trkpt>
      <trkpt lat="47.21032" lon="-1.73128">
        <ele>2.5406494</ele>
        <time>2010-10-17T07:56:43Z</time>
      </trkpt>
      <trkpt lat="47.21076" lon="-1.7315">
        <ele>3.5019531</ele>
        <time>2010-10-17T07:56:57Z</time>
      </trkpt>
      <trkpt lat="47.2112" lon="-1.73171">
        <ele>4.4632568</ele>
        <time>2010-10-17T07:57:10Z</time>
      </trkpt>
      <trkpt lat="47.21128" lon="-1.73236">
        <ele>3.982666</ele>
        <time>2010-10-17T07:57:20Z</time>
      </trkpt>
      <trkpt lat="47.21123" lon="-1.73304">
        <ele>3.982666</ele>
        <time>2010-10-17T07:57:29Z</time>
      </trkpt>
      <trkpt lat="47.21119" lon="-1.73375">
        <ele>3.982666</ele>
        <time>2010-10-17T07:57:39Z</time>
      </trkpt>
      <trkpt lat="47.21117" lon="-1.73447">
        <ele>3.5019531</ele>
        <time>2010-10-17T07:57:49Z</time>
      </trkpt>
      <trkpt lat="47.21115" lon="-1.73519">
        <ele>3.0212402</ele>
        <time>2010-10-17T07:57:58Z</time>
      </trkpt>
      <trkpt lat="47.21114" lon="-1.73584">
        <ele>3.5019531</ele>
        <time>2010-10-17T07:58:06Z</time>
      </trkpt>
      <trkpt lat="47.21112" lon="-1.73655">
        <ele>3.982666</ele>
        <time>2010-10-17T07:58:15Z</time>
      </trkpt>
      <trkpt lat="47.21117" lon="-1.73722">
        <ele>3.982666</ele>
        <time>2010-10-17T07:58:23Z</time>
      </trkpt>
      <trkpt lat="47.21127" lon="-1.7379">
        <ele>3.5019531</ele>
        <time>2010-10-17T07:58:31Z</time>
      </trkpt>
      <trkpt lat="47.21141" lon="-1.73858">
        <ele>1.5793457</ele>
        <time>2010-10-17T07:58:39Z</time>
      </trkpt>
      <trkpt lat="47.21155" lon="-1.73922">
        <ele>1.5793457</ele>
        <time>2010-10-17T07:58:47Z</time>
      </trkpt>
      <trkpt lat="47.21167" lon="-1.73994">
        <ele>1.0986328</ele>
        <time>2010-10-17T07:58:56Z</time>
      </trkpt>
      <trkpt lat="47.21175" lon="-1.74059">
        <ele>1.0986328</ele>
        <time>2010-10-17T07:59:06Z</time>
      </trkpt>
      <trkpt lat="47.21141" lon="-1.74113">
        <ele>1.0986328</ele>
        <time>2010-10-17T07:59:16Z</time>
      </trkpt>
      <trkpt lat="47.21107" lon="-1.74159">
        <ele>1.5793457</ele>
        <time>2010-10-17T07:59:24Z</time>
      </trkpt>
      <trkpt lat="47.21072" lon="-1.74209">
        <ele>1.0986328</ele>
        <time>2010-10-17T07:59:32Z</time>
      </trkpt>
      <trkpt lat="47.21042" lon="-1.74264">
        <ele>1.0986328</ele>
        <time>2010-10-17T07:59:39Z</time>
      </trkpt>
      <trkpt lat="47.21016" lon="-1.74324">
        <ele>1.0986328</ele>
        <time>2010-10-17T07:59:46Z</time>
      </trkpt>
      <trkpt lat="47.20998" lon="-1.74393">
        <ele>1.5793457</ele>
        <time>2010-10-17T07:59:54Z</time>
      </trkpt>
      <trkpt lat="47.20993" lon="-1.74466">
        <ele>1.0986328</ele>
        <time>2010-10-17T08:00:02Z</time>
      </trkpt>
      <trkpt lat="47.20986" lon="-1.7454">
        <ele>0.1374512</ele>
        <time>2010-10-17T08:00:10Z</time>
      </trkpt>
      <trkpt lat="47.20977" lon="-1.74607">
        <ele>0.618042</ele>
        <time>2010-10-17T08:00:18Z</time>
      </trkpt>
      <trkpt lat="47.20968" lon="-1.74682">
        <ele>0.1374512</ele>
        <time>2010-10-17T08:00:27Z</time>
      </trkpt>
      <trkpt lat="47.20961" lon="-1.74755">
        <ele>0.1374512</ele>
        <time>2010-10-17T08:00:36Z</time>
      </trkpt>
      <trkpt lat="47.20956" lon="-1.74825">
        <ele>0.618042</ele>
        <time>2010-10-17T08:00:45Z</time>
      </trkpt>
      <trkpt lat="47.20928" lon="-1.74883">
        <ele>1.5793457</ele>
        <time>2010-10-17T08:00:54Z</time>
      </trkpt>
      <trkpt lat="47.20878" lon="-1.74903">
        <ele>2.5406494</ele>
        <time>2010-10-17T08:01:03Z</time>
      </trkpt>
      <trkpt lat="47.20833" lon="-1.74919">
        <ele>3.5019531</ele>
        <time>2010-10-17T08:01:11Z</time>
      </trkpt>
      <trkpt lat="47.20789" lon="-1.74937">
        <ele>1.5793457</ele>
        <time>2010-10-17T08:01:18Z</time>
      </trkpt>
      <trkpt lat="47.20742" lon="-1.74954">
        <ele>1.0986328</ele>
        <time>2010-10-17T08:01:25Z</time>
      </trkpt>
      <trkpt lat="47.20699" lon="-1.74974">
        <ele>1.0986328</ele>
        <time>2010-10-17T08:01:32Z</time>
      </trkpt>
      <trkpt lat="47.20664" lon="-1.75019">
        <ele>1.0986328</ele>
        <time>2010-10-17T08:01:39Z</time>
      </trkpt>
      <trkpt lat="47.20642" lon="-1.75078">
        <ele>2.0600586</ele>
        <time>2010-10-17T08:01:46Z</time>
      </trkpt>
      <trkpt lat="47.20623" lon="-1.75141">
        <ele>1.5793457</ele>
        <time>2010-10-17T08:01:54Z</time>
      </trkpt>
      <trkpt lat="47.20597" lon="-1.75199">
        <ele>2.0600586</ele>
        <time>2010-10-17T08:02:06Z</time>
      </trkpt>
      <trkpt lat="47.20569" lon="-1.75228">
        <ele>-0.3433838</ele>
        <time>2010-10-17T08:03:55Z</time>
      </trkpt>
      <trkpt lat="47.20556" lon="-1.75292">
        <ele>-2.7467041</ele>
        <time>2010-10-17T08:04:11Z</time>
      </trkpt>
      <trkpt lat="47.20541" lon="-1.75345">
        <ele>-0.8240967</ele>
        <time>2010-10-17T08:10:39Z</time>
      </trkpt>
      <trkpt lat="47.20513" lon="-1.75398">
        <ele>-0.8240967</ele>
        <time>2010-10-17T08:11:06Z</time>
      </trkpt>
      <trkpt lat="47.20488" lon="-1.75454">
        <ele>-1.3046875</ele>
        <time>2010-10-17T08:11:26Z</time>
      </trkpt>
      <trkpt lat="47.2046" lon="-1.75508">
        <ele>-1.3046875</ele>
        <time>2010-10-17T08:11:44Z</time>
      </trkpt>
      <trkpt lat="47.20427" lon="-1.75553">
        <ele>0.1374512</ele>
        <time>2010-10-17T08:12:02Z</time>
      </trkpt>
      <trkpt lat="47.20387" lon="-1.75585">
        <ele>-0.3433838</ele>
        <time>2010-10-17T08:12:25Z</time>
      </trkpt>
      <trkpt lat="47.20346" lon="-1.75572">
        <ele>-1.3046875</ele>
        <time>2010-10-17T08:13:12Z</time>
      </trkpt>
      <trkpt lat="47.20317" lon="-1.75521">
        <ele>2.5406494</ele>
        <time>2010-10-17T08:13:25Z</time>
      </trkpt>
      <trkpt lat="47.20299" lon="-1.75474">
        <ele>1.0986328</ele>
        <time>2010-10-17T08:13:47Z</time>
      </trkpt>
      <trkpt lat="47.20281" lon="-1.75408">
        <ele>2.0600586</ele>
        <time>2010-10-17T08:14:01Z</time>
      </trkpt>
      <trkpt lat="47.20263" lon="-1.75343">
        <ele>3.5019531</ele>
        <time>2010-10-17T08:14:14Z</time>
      </trkpt>
      <trkpt lat="47.20246" lon="-1.75279">
        <ele>3.0212402</ele>
        <time>2010-10-17T08:14:26Z</time>
      </trkpt>
      <trkpt lat="47.20229" lon="-1.75218">
        <ele>3.0212402</ele>
        <time>2010-10-17T08:14:38Z</time>
      </trkpt>
      <trkpt lat="47.20203" lon="-1.75165">
        <ele>3.0212402</ele>
        <time>2010-10-17T08:14:52Z</time>
      </trkpt>
      <trkpt lat="47.20213" lon="-1.75096">
        <ele>0.618042</ele>
        <time>2010-10-17T08:15:04Z</time>
      </trkpt>
      <trkpt lat="47.20221" lon="-1.75029">
        <ele>1.0986328</ele>
        <time>2010-10-17T08:15:15Z</time>
      </trkpt>
      <trkpt lat="47.20214" lon="-1.74965">
        <ele>1.0986328</ele>
        <time>2010-10-17T08:15:26Z</time>
      </trkpt>
      <trkpt lat="47.20186" lon="-1.74929">
        <ele>-0.3433838</ele>
        <time>2010-10-17T08:15:38Z</time>
      </trkpt>
      <trkpt lat="47.2014" lon="-1.74912">
        <ele>0.618042</ele>
        <time>2010-10-17T08:15:50Z</time>
      </trkpt>
      <trkpt lat="47.20095" lon="-1.7491">
        <ele>1.0986328</ele>
        <time>2010-10-17T08:16:01Z</time>
      </trkpt>
      <trkpt lat="47.20056" lon="-1.74867">
        <ele>-0.3433838</ele>
        <time>2010-10-17T08:16:12Z</time>
      </trkpt>
      <trkpt lat="47.20028" lon="-1.74808">
        <ele>2.5406494</ele>
        <time>2010-10-17T08:16:24Z</time>
      </trkpt>
      <trkpt lat="47.20013" lon="-1.74741">
        <ele>5.4245605</ele>
        <time>2010-10-17T08:16:35Z</time>
      </trkpt>
      <trkpt lat="47.19992" lon="-1.74681">
        <ele>8.3085938</ele>
        <time>2010-10-17T08:16:46Z</time>
      </trkpt>
      <trkpt lat="47.19955" lon="-1.74645">
        <ele>9.2698975</ele>
        <time>2010-10-17T08:16:57Z</time>
      </trkpt>
      <trkpt lat="47.19955" lon="-1.74583">
        <ele>11.6732178</ele>
        <time>2010-10-17T08:17:09Z</time>
      </trkpt>
      <trkpt lat="47.19979" lon="-1.74526">
        <ele>14.076416</ele>
        <time>2010-10-17T08:17:29Z</time>
      </trkpt>
      <trkpt lat="47.19979" lon="-1.74451">
        <ele>13.5958252</ele>
        <time>2010-10-17T08:17:43Z</time>
      </trkpt>
      <trkpt lat="47.19972" lon="-1.74382">
        <ele>15.9990234</ele>
        <time>2010-10-17T08:17:55Z</time>
      </trkpt>
      <trkpt lat="47.19987" lon="-1.74309">
        <ele>14.5570068</ele>
        <time>2010-10-17T08:18:04Z</time>
      </trkpt>
      <trkpt lat="47.19987" lon="-1.74231">
        <ele>12.6343994</ele>
        <time>2010-10-17T08:18:13Z</time>
      </trkpt>
      <trkpt lat="47.19982" lon="-1.74163">
        <ele>14.5570068</ele>
        <time>2010-10-17T08:18:22Z</time>
      </trkpt>
      <trkpt lat="47.19971" lon="-1.74096">
        <ele>17.4411621</ele>
        <time>2010-10-17T08:18:32Z</time>
      </trkpt>
      <trkpt lat="47.19963" lon="-1.74025">
        <ele>18.4023438</ele>
        <time>2010-10-17T08:18:42Z</time>
      </trkpt>
      <trkpt lat="47.19968" lon="-1.73962">
        <ele>18.8830566</ele>
        <time>2010-10-17T08:18:54Z</time>
      </trkpt>
      <trkpt lat="47.19999" lon="-1.73909">
        <ele>16.9604492</ele>
        <time>2010-10-17T08:19:02Z</time>
      </trkpt>
      <trkpt lat="47.20003" lon="-1.7384">
        <ele>16.9604492</ele>
        <time>2010-10-17T08:19:10Z</time>
      </trkpt>
      <trkpt lat="47.19994" lon="-1.73773">
        <ele>18.8830566</ele>
        <time>2010-10-17T08:19:20Z</time>
      </trkpt>
      <trkpt lat="47.19988" lon="-1.73706">
        <ele>19.8443604</ele>
        <time>2010-10-17T08:19:32Z</time>
      </trkpt>
      <trkpt lat="47.19983" lon="-1.73638">
        <ele>18.4023438</ele>
        <time>2010-10-17T08:19:45Z</time>
      </trkpt>
      <trkpt lat="47.19982" lon="-1.73576">
        <ele>16.9604492</ele>
        <time>2010-10-17T08:20:02Z</time>
      </trkpt>
      <trkpt lat="47.20029" lon="-1.73567">
        <ele>15.5184326</ele>
        <time>2010-10-17T08:20:12Z</time>
      </trkpt>
      <trkpt lat="47.20072" lon="-1.73539">
        <ele>10.711792</ele>
        <time>2010-10-17T08:20:22Z</time>
      </trkpt>
      <trkpt lat="47.20074" lon="-1.7347">
        <ele>6.8664551</ele>
        <time>2010-10-17T08:20:31Z</time>
      </trkpt>
      <trkpt lat="47.20073" lon="-1.73402">
        <ele>6.8664551</ele>
        <time>2010-10-17T08:20:41Z</time>
      </trkpt>
      <trkpt lat="47.20069" lon="-1.73333">
        <ele>8.3085938</ele>
        <time>2010-10-17T08:20:52Z</time>
      </trkpt>
      <trkpt lat="47.20069" lon="-1.73264">
        <ele>6.8664551</ele>
        <time>2010-10-17T08:21:02Z</time>
      </trkpt>
      <trkpt lat="47.2007" lon="-1.73196">
        <ele>6.3858643</ele>
        <time>2010-10-17T08:21:11Z</time>
      </trkpt>
      <trkpt lat="47.20063" lon="-1.73122">
        <ele>6.8664551</ele>
        <time>2010-10-17T08:21:20Z</time>
      </trkpt>
      <trkpt lat="47.20056" lon="-1.73051">
        <ele>6.8664551</ele>
        <time>2010-10-17T08:21:28Z</time>
      </trkpt>
      <trkpt lat="47.20037" lon="-1.72979">
        <ele>5.9052734</ele>
        <time>2010-10-17T08:21:36Z</time>
      </trkpt>
      <trkpt lat="47.2002" lon="-1.72921">
        <ele>6.3858643</ele>
        <time>2010-10-17T08:21:44Z</time>
      </trkpt>
      <trkpt lat="47.20006" lon="-1.7285">
        <ele>7.347168</ele>
        <time>2010-10-17T08:21:52Z</time>
      </trkpt>
      <trkpt lat="47.19985" lon="-1.72785">
        <ele>8.3085938</ele>
        <time>2010-10-17T08:22:00Z</time>
      </trkpt>
      <trkpt lat="47.19975" lon="-1.72711">
        <ele>10.2312012</ele>
        <time>2010-10-17T08:22:09Z</time>
      </trkpt>
      <trkpt lat="47.19964" lon="-1.72642">
        <ele>11.1925049</ele>
        <time>2010-10-17T08:22:18Z</time>
      </trkpt>
      <trkpt lat="47.19941" lon="-1.72576">
        <ele>9.7506104</ele>
        <time>2010-10-17T08:22:31Z</time>
      </trkpt>
      <trkpt lat="47.19912" lon="-1.72519">
        <ele>8.7891846</ele>
        <time>2010-10-17T08:22:41Z</time>
      </trkpt>
      <trkpt lat="47.19883" lon="-1.72466">
        <ele>7.347168</ele>
        <time>2010-10-17T08:22:52Z</time>
      </trkpt>
      <trkpt lat="47.1992" lon="-1.72435">
        <ele>12.6343994</ele>
        <time>2010-10-17T08:23:27Z</time>
      </trkpt>
      <trkpt lat="47.19963" lon="-1.72428">
        <ele>6.8664551</ele>
        <time>2010-10-17T08:24:21Z</time>
      </trkpt>
      <trkpt lat="47.19958" lon="-1.72366">
        <ele>5.9052734</ele>
        <time>2010-10-17T08:24:33Z</time>
      </trkpt>
      <trkpt lat="47.19938" lon="-1.72306">
        <ele>4.4632568</ele>
        <time>2010-10-17T08:24:43Z</time>
      </trkpt>
      <trkpt lat="47.19925" lon="-1.72248">
        <ele>4.4632568</ele>
        <time>2010-10-17T08:24:52Z</time>
      </trkpt>
      <trkpt lat="47.19902" lon="-1.72244">
        <ele>6.3858643</ele>
        <time>2010-10-17T08:25:05Z</time>
      </trkpt>
      <trkpt lat="47.19853" lon="-1.72261">
        <ele>7.347168</ele>
        <time>2010-10-17T08:25:15Z</time>
      </trkpt>
      <trkpt lat="47.19802" lon="-1.7227">
        <ele>10.2312012</ele>
        <time>2010-10-17T08:25:24Z</time>
      </trkpt>
      <trkpt lat="47.19755" lon="-1.72272">
        <ele>14.5570068</ele>
        <time>2010-10-17T08:25:38Z</time>
      </trkpt>
      <trkpt lat="47.19725" lon="-1.72216">
        <ele>12.1538086</ele>
        <time>2010-10-17T08:25:50Z</time>
      </trkpt>
      <trkpt lat="47.19721" lon="-1.72141">
        <ele>9.2698975</ele>
        <time>2010-10-17T08:25:59Z</time>
      </trkpt>
      <trkpt lat="47.19719" lon="-1.72074">
        <ele>8.3085938</ele>
        <time>2010-10-17T08:26:07Z</time>
      </trkpt>
      <trkpt lat="47.19719" lon="-1.72002">
        <ele>7.8278809</ele>
        <time>2010-10-17T08:26:15Z</time>
      </trkpt>
      <trkpt lat="47.19694" lon="-1.71958">
        <ele>9.2698975</ele>
        <time>2010-10-17T08:26:28Z</time>
      </trkpt>
      <trkpt lat="47.19701" lon="-1.71902">
        <ele>9.7506104</ele>
        <time>2010-10-17T08:26:50Z</time>
      </trkpt>
      <trkpt lat="47.19739" lon="-1.71876">
        <ele>20.3249512</ele>
        <time>2010-10-17T08:27:15Z</time>
      </trkpt>
      <trkpt lat="47.19777" lon="-1.71831">
        <ele>25.1317139</ele>
        <time>2010-10-17T08:27:35Z</time>
      </trkpt>
      <trkpt lat="47.19769" lon="-1.71769">
        <ele>25.1317139</ele>
        <time>2010-10-17T08:27:52Z</time>
      </trkpt>
      <trkpt lat="47.1975" lon="-1.71708">
        <ele>25.6123047</ele>
        <time>2010-10-17T08:28:12Z</time>
      </trkpt>
      <trkpt lat="47.19734" lon="-1.71647">
        <ele>26.0928955</ele>
        <time>2010-10-17T08:29:12Z</time>
      </trkpt>
      <trkpt lat="47.19716" lon="-1.71583">
        <ele>26.0928955</ele>
        <time>2010-10-17T08:29:28Z</time>
      </trkpt>
      <trkpt lat="47.19698" lon="-1.71522">
        <ele>26.0928955</ele>
        <time>2010-10-17T08:29:42Z</time>
      </trkpt>
      <trkpt lat="47.19678" lon="-1.71458">
        <ele>26.5736084</ele>
        <time>2010-10-17T08:29:56Z</time>
      </trkpt>
      <trkpt lat="47.1964" lon="-1.71416">
        <ele>25.6123047</ele>
        <time>2010-10-17T08:30:09Z</time>
      </trkpt>
      <trkpt lat="47.19596" lon="-1.71373">
        <ele>21.286377</ele>
        <time>2010-10-17T08:30:17Z</time>
      </trkpt>
      <trkpt lat="47.19556" lon="-1.71324">
        <ele>19.3637695</ele>
        <time>2010-10-17T08:30:24Z</time>
      </trkpt>
      <trkpt lat="47.19523" lon="-1.71278">
        <ele>18.8830566</ele>
        <time>2010-10-17T08:30:31Z</time>
      </trkpt>
      <trkpt lat="47.19497" lon="-1.71219">
        <ele>17.9217529</ele>
        <time>2010-10-17T08:30:39Z</time>
      </trkpt>
      <trkpt lat="47.19484" lon="-1.71154">
        <ele>19.3637695</ele>
        <time>2010-10-17T08:30:48Z</time>
      </trkpt>
      <trkpt lat="47.19493" lon="-1.71088">
        <ele>19.8443604</ele>
        <time>2010-10-17T08:30:58Z</time>
      </trkpt>
      <trkpt lat="47.19528" lon="-1.71048">
        <ele>22.7282715</ele>
        <time>2010-10-17T08:31:09Z</time>
      </trkpt>
      <trkpt lat="47.19575" lon="-1.71025">
        <ele>25.6123047</ele>
        <time>2010-10-17T08:31:21Z</time>
      </trkpt>
      <trkpt lat="47.19618" lon="-1.71002">
        <ele>27.5349121</ele>
        <time>2010-10-17T08:31:32Z</time>
      </trkpt>
      <trkpt lat="47.19662" lon="-1.70975">
        <ele>25.1317139</ele>
        <time>2010-10-17T08:31:46Z</time>
      </trkpt>
      <trkpt lat="47.19706" lon="-1.70947">
        <ele>17.9217529</ele>
        <time>2010-10-17T08:32:07Z</time>
      </trkpt>
      <trkpt lat="47.19747" lon="-1.70914">
        <ele>13.1151123</ele>
        <time>2010-10-17T08:32:14Z</time>
      </trkpt>
      <trkpt lat="47.19766" lon="-1.70858">
        <ele>7.347168</ele>
        <time>2010-10-17T08:32:20Z</time>
      </trkpt>
      <trkpt lat="47.19758" lon="-1.70782">
        <ele>2.0600586</ele>
        <time>2010-10-17T08:32:26Z</time>
      </trkpt>
      <trkpt lat="47.19747" lon="-1.70715">
        <ele>0.1374512</ele>
        <time>2010-10-17T08:32:33Z</time>
      </trkpt>
      <trkpt lat="47.19736" lon="-1.70642">
        <ele>-0.3433838</ele>
        <time>2010-10-17T08:32:41Z</time>
      </trkpt>
      <trkpt lat="47.19727" lon="-1.70578">
        <ele>-1.3046875</ele>
        <time>2010-10-17T08:32:48Z</time>
      </trkpt>
      <trkpt lat="47.19712" lon="-1.70575">
        <ele>2.0600586</ele>
        <time>2010-10-17T08:33:10Z</time>
      </trkpt>
      <trkpt lat="47.19674" lon="-1.70586">
        <ele>13.5958252</ele>
        <time>2010-10-17T08:33:48Z</time>
      </trkpt>
      <trkpt lat="47.19638" lon="-1.70532">
        <ele>18.4023438</ele>
        <time>2010-10-17T08:34:12Z</time>
      </trkpt>
      <trkpt lat="47.19603" lon="-1.70502">
        <ele>26.0928955</ele>
        <time>2010-10-17T08:34:35Z</time>
      </trkpt>
      <trkpt lat="47.1956" lon="-1.70522">
        <ele>28.4962158</ele>
        <time>2010-10-17T08:34:57Z</time>
      </trkpt>
      <trkpt lat="47.19517" lon="-1.70542">
        <ele>28.4962158</ele>
        <time>2010-10-17T08:35:18Z</time>
      </trkpt>
      <trkpt lat="47.1947" lon="-1.70563">
        <ele>28.9769287</ele>
        <time>2010-10-17T08:35:34Z</time>
      </trkpt>
      <trkpt lat="47.19425" lon="-1.70584">
        <ele>27.5349121</ele>
        <time>2010-10-17T08:35:46Z</time>
      </trkpt>
      <trkpt lat="47.19394" lon="-1.70551">
        <ele>27.0543213</ele>
        <time>2010-10-17T08:35:58Z</time>
      </trkpt>
      <trkpt lat="47.19376" lon="-1.70487">
        <ele>27.0543213</ele>
        <time>2010-10-17T08:36:11Z</time>
      </trkpt>
      <trkpt lat="47.19359" lon="-1.70419">
        <ele>27.5349121</ele>
        <time>2010-10-17T08:36:23Z</time>
      </trkpt>
      <trkpt lat="47.19345" lon="-1.70366">
        <ele>26.0928955</ele>
        <time>2010-10-17T08:36:40Z</time>
      </trkpt>
      <trkpt lat="47.19301" lon="-1.70367">
        <ele>19.3637695</ele>
        <time>2010-10-17T08:36:51Z</time>
      </trkpt>
      <trkpt lat="47.19293" lon="-1.703">
        <ele>14.5570068</ele>
        <time>2010-10-17T08:37:03Z</time>
      </trkpt>
      <trkpt lat="47.19273" lon="-1.70234">
        <ele>11.1925049</ele>
        <time>2010-10-17T08:37:11Z</time>
      </trkpt>
      <trkpt lat="47.19257" lon="-1.70162">
        <ele>7.8278809</ele>
        <time>2010-10-17T08:37:21Z</time>
      </trkpt>
      <trkpt lat="47.19248" lon="-1.70094">
        <ele>9.7506104</ele>
        <time>2010-10-17T08:37:33Z</time>
      </trkpt>
      <trkpt lat="47.19202" lon="-1.70088">
        <ele>7.347168</ele>
        <time>2010-10-17T08:37:48Z</time>
      </trkpt>
      <trkpt lat="47.19152" lon="-1.70073">
        <ele>3.5019531</ele>
        <time>2010-10-17T08:38:04Z</time>
      </trkpt>
      <trkpt lat="47.19109" lon="-1.7008">
        <ele>6.3858643</ele>
        <time>2010-10-17T08:39:31Z</time>
      </trkpt>
      <trkpt lat="47.19071" lon="-1.70122">
        <ele>7.347168</ele>
        <time>2010-10-17T08:39:43Z</time>
      </trkpt>
      <trkpt lat="47.19045" lon="-1.70097">
        <ele>6.8664551</ele>
        <time>2010-10-17T08:40:01Z</time>
      </trkpt>
      <trkpt lat="47.19048" lon="-1.70024">
        <ele>4.4632568</ele>
        <time>2010-10-17T08:40:12Z</time>
      </trkpt>
      <trkpt lat="47.19043" lon="-1.69952">
        <ele>6.8664551</ele>
        <time>2010-10-17T08:40:23Z</time>
      </trkpt>
      <trkpt lat="47.19013" lon="-1.6994">
        <ele>7.8278809</ele>
        <time>2010-10-17T08:40:38Z</time>
      </trkpt>
      <trkpt lat="47.18979" lon="-1.69988">
        <ele>10.2312012</ele>
        <time>2010-10-17T08:40:50Z</time>
      </trkpt>
      <trkpt lat="47.18932" lon="-1.70025">
        <ele>9.2698975</ele>
        <time>2010-10-17T08:41:07Z</time>
      </trkpt>
      <trkpt lat="47.18874" lon="-1.69996">
        <ele>14.076416</ele>
        <time>2010-10-17T08:41:33Z</time>
      </trkpt>
      <trkpt lat="47.1883" lon="-1.69949">
        <ele>14.5570068</ele>
        <time>2010-10-17T08:41:48Z</time>
      </trkpt>
      <trkpt lat="47.1879" lon="-1.69906">
        <ele>15.9990234</ele>
        <time>2010-10-17T08:42:00Z</time>
      </trkpt>
      <trkpt lat="47.18751" lon="-1.69854">
        <ele>20.8056641</ele>
        <time>2010-10-17T08:42:15Z</time>
      </trkpt>
      <trkpt lat="47.18705" lon="-1.69812">
        <ele>23.6895752</ele>
        <time>2010-10-17T08:42:28Z</time>
      </trkpt>
      <trkpt lat="47.18669" lon="-1.6977">
        <ele>23.2089844</ele>
        <time>2010-10-17T08:42:40Z</time>
      </trkpt>
      <trkpt lat="47.18631" lon="-1.69713">
        <ele>20.8056641</ele>
        <time>2010-10-17T08:42:51Z</time>
      </trkpt>
      <trkpt lat="47.18606" lon="-1.6965">
        <ele>21.7669678</ele>
        <time>2010-10-17T08:43:02Z</time>
      </trkpt>
      <trkpt lat="47.18579" lon="-1.69598">
        <ele>23.6895752</ele>
        <time>2010-10-17T08:43:15Z</time>
      </trkpt>
      <trkpt lat="47.18538" lon="-1.69627">
        <ele>23.6895752</ele>
        <time>2010-10-17T08:43:28Z</time>
      </trkpt>
      <trkpt lat="47.18499" lon="-1.69669">
        <ele>23.6895752</ele>
        <time>2010-10-17T08:43:41Z</time>
      </trkpt>
      <trkpt lat="47.18462" lon="-1.69711">
        <ele>23.2089844</ele>
        <time>2010-10-17T08:43:54Z</time>
      </trkpt>
      <trkpt lat="47.1842" lon="-1.6975">
        <ele>23.6895752</ele>
        <time>2010-10-17T08:44:06Z</time>
      </trkpt>
      <trkpt lat="47.18377" lon="-1.69772">
        <ele>23.2089844</ele>
        <time>2010-10-17T08:44:18Z</time>
      </trkpt>
      <trkpt lat="47.18329" lon="-1.69783">
        <ele>23.6895752</ele>
        <time>2010-10-17T08:44:31Z</time>
      </trkpt>
      <trkpt lat="47.18289" lon="-1.69816">
        <ele>23.2089844</ele>
        <time>2010-10-17T08:44:44Z</time>
      </trkpt>
      <trkpt lat="47.18266" lon="-1.69874">
        <ele>22.2475586</ele>
        <time>2010-10-17T08:44:57Z</time>
      </trkpt>
      <trkpt lat="47.1826" lon="-1.6994">
        <ele>21.286377</ele>
        <time>2010-10-17T08:45:10Z</time>
      </trkpt>
      <trkpt lat="47.18249" lon="-1.69999">
        <ele>19.8443604</ele>
        <time>2010-10-17T08:45:25Z</time>
      </trkpt>
      <trkpt lat="47.18229" lon="-1.69936">
        <ele>20.8056641</ele>
        <time>2010-10-17T08:45:38Z</time>
      </trkpt>
      <trkpt lat="47.18209" lon="-1.69876">
        <ele>20.8056641</ele>
        <time>2010-10-17T08:45:50Z</time>
      </trkpt>
      <trkpt lat="47.18189" lon="-1.6981">
        <ele>21.7669678</ele>
        <time>2010-10-17T08:46:02Z</time>
      </trkpt>
      <trkpt lat="47.18172" lon="-1.6974">
        <ele>21.7669678</ele>
        <time>2010-10-17T08:46:13Z</time>
      </trkpt>
      <trkpt lat="47.18152" lon="-1.69674">
        <ele>23.6895752</ele>
        <time>2010-10-17T08:46:24Z</time>
      </trkpt>
      <trkpt lat="47.18134" lon="-1.69608">
        <ele>23.6895752</ele>
        <time>2010-10-17T08:46:35Z</time>
      </trkpt>
      <trkpt lat="47.18115" lon="-1.69543">
        <ele>24.1702881</ele>
        <time>2010-10-17T08:46:46Z</time>
      </trkpt>
      <trkpt lat="47.18096" lon="-1.69478">
        <ele>26.5736084</ele>
        <time>2010-10-17T08:46:58Z</time>
      </trkpt>
      <trkpt lat="47.18081" lon="-1.69409">
        <ele>27.5349121</ele>
        <time>2010-10-17T08:47:14Z</time>
      </trkpt>
      <trkpt lat="47.18068" lon="-1.69343">
        <ele>27.5349121</ele>
        <time>2010-10-17T08:47:23Z</time>
      </trkpt>
      <trkpt lat="47.18057" lon="-1.69278">
        <ele>27.0543213</ele>
        <time>2010-10-17T08:47:32Z</time>
      </trkpt>
      <trkpt lat="47.1809" lon="-1.69253">
        <ele>29.4575195</ele>
        <time>2010-10-17T08:47:45Z</time>
      </trkpt>
      <trkpt lat="47.18137" lon="-1.69251">
        <ele>30.4188232</ele>
        <time>2010-10-17T08:47:56Z</time>
      </trkpt>
      <trkpt lat="47.18186" lon="-1.69253">
        <ele>32.3415527</ele>
        <time>2010-10-17T08:48:08Z</time>
      </trkpt>
      <trkpt lat="47.18233" lon="-1.69259">
        <ele>34.2641602</ele>
        <time>2010-10-17T08:48:20Z</time>
      </trkpt>
      <trkpt lat="47.18259" lon="-1.69227">
        <ele>30.4188232</ele>
        <time>2010-10-17T08:48:36Z</time>
      </trkpt>
      <trkpt lat="47.18223" lon="-1.69187">
        <ele>26.0928955</ele>
        <time>2010-10-17T08:48:46Z</time>
      </trkpt>
      <trkpt lat="47.18185" lon="-1.69139">
        <ele>23.2089844</ele>
        <time>2010-10-17T08:48:57Z</time>
      </trkpt>
      <trkpt lat="47.18149" lon="-1.6909">
        <ele>22.7282715</ele>
        <time>2010-10-17T08:49:07Z</time>
      </trkpt>
      <trkpt lat="47.18137" lon="-1.69021">
        <ele>22.7282715</ele>
        <time>2010-10-17T08:49:17Z</time>
      </trkpt>
      <trkpt lat="47.1812" lon="-1.68951">
        <ele>25.6123047</ele>
        <time>2010-10-17T08:49:28Z</time>
      </trkpt>
      <trkpt lat="47.181" lon="-1.68883">
        <ele>27.0543213</ele>
        <time>2010-10-17T08:49:40Z</time>
      </trkpt>
      <trkpt lat="47.18081" lon="-1.68823">
        <ele>27.5349121</ele>
        <time>2010-10-17T08:49:51Z</time>
      </trkpt>
      <trkpt lat="47.18057" lon="-1.68764">
        <ele>29.4575195</ele>
        <time>2010-10-17T08:50:03Z</time>
      </trkpt>
      <trkpt lat="47.18031" lon="-1.68702">
        <ele>30.8995361</ele>
        <time>2010-10-17T08:50:15Z</time>
      </trkpt>
      <trkpt lat="47.18004" lon="-1.68643">
        <ele>30.8995361</ele>
        <time>2010-10-17T08:50:27Z</time>
      </trkpt>
      <trkpt lat="47.17975" lon="-1.68591">
        <ele>31.8607178</ele>
        <time>2010-10-17T08:50:40Z</time>
      </trkpt>
      <trkpt lat="47.17946" lon="-1.68536">
        <ele>31.8607178</ele>
        <time>2010-10-17T08:50:53Z</time>
      </trkpt>
      <trkpt lat="47.17918" lon="-1.68482">
        <ele>31.8607178</ele>
        <time>2010-10-17T08:51:05Z</time>
      </trkpt>
      <trkpt lat="47.17897" lon="-1.6842">
        <ele>29.9381104</ele>
        <time>2010-10-17T08:51:18Z</time>
      </trkpt>
      <trkpt lat="47.17872" lon="-1.68365">
        <ele>28.9769287</ele>
        <time>2010-10-17T08:51:29Z</time>
      </trkpt>
      <trkpt lat="47.17833" lon="-1.68336">
        <ele>30.4188232</ele>
        <time>2010-10-17T08:51:40Z</time>
      </trkpt>
      <trkpt lat="47.1778" lon="-1.68335">
        <ele>30.8995361</ele>
        <time>2010-10-17T08:51:56Z</time>
      </trkpt>
      <trkpt lat="47.17736" lon="-1.68309">
        <ele>31.380127</ele>
        <time>2010-10-17T08:52:11Z</time>
      </trkpt>
      <trkpt lat="47.17747" lon="-1.68241">
        <ele>32.3415527</ele>
        <time>2010-10-17T08:52:27Z</time>
      </trkpt>
      <trkpt lat="47.17763" lon="-1.68179">
        <ele>29.4575195</ele>
        <time>2010-10-17T08:52:42Z</time>
      </trkpt>
      <trkpt lat="47.17781" lon="-1.68123">
        <ele>25.1317139</ele>
        <time>2010-10-17T08:52:59Z</time>
      </trkpt>
      <trkpt lat="47.17737" lon="-1.68111">
        <ele>28.4962158</ele>
        <time>2010-10-17T08:53:11Z</time>
      </trkpt>
      <trkpt lat="47.17701" lon="-1.68061">
        <ele>30.4188232</ele>
        <time>2010-10-17T08:53:23Z</time>
      </trkpt>
      <trkpt lat="47.17671" lon="-1.68005">
        <ele>30.8995361</ele>
        <time>2010-10-17T08:53:35Z</time>
      </trkpt>
      <trkpt lat="47.17629" lon="-1.67977">
        <ele>30.8995361</ele>
        <time>2010-10-17T08:53:46Z</time>
      </trkpt>
      <trkpt lat="47.17592" lon="-1.67939">
        <ele>30.4188232</ele>
        <time>2010-10-17T08:53:58Z</time>
      </trkpt>
      <trkpt lat="47.17552" lon="-1.67973">
        <ele>30.8995361</ele>
        <time>2010-10-17T08:54:10Z</time>
      </trkpt>
      <trkpt lat="47.1753" lon="-1.67915">
        <ele>30.8995361</ele>
        <time>2010-10-17T08:54:21Z</time>
      </trkpt>
      <trkpt lat="47.17521" lon="-1.67848">
        <ele>31.8607178</ele>
        <time>2010-10-17T08:54:33Z</time>
      </trkpt>
      <trkpt lat="47.17504" lon="-1.67788">
        <ele>33.3028564</ele>
        <time>2010-10-17T08:54:45Z</time>
      </trkpt>
      <trkpt lat="47.17475" lon="-1.67752">
        <ele>33.3028564</ele>
        <time>2010-10-17T08:55:01Z</time>
      </trkpt>
      <trkpt lat="47.17432" lon="-1.67727">
        <ele>29.9381104</ele>
        <time>2010-10-17T08:55:15Z</time>
      </trkpt>
      <trkpt lat="47.17404" lon="-1.67673">
        <ele>22.7282715</ele>
        <time>2010-10-17T08:55:28Z</time>
      </trkpt>
      <trkpt lat="47.17405" lon="-1.67604">
        <ele>19.3637695</ele>
        <time>2010-10-17T08:55:40Z</time>
      </trkpt>
      <trkpt lat="47.17404" lon="-1.67535">
        <ele>21.7669678</ele>
        <time>2010-10-17T08:55:54Z</time>
      </trkpt>
      <trkpt lat="47.17385" lon="-1.67468">
        <ele>25.1317139</ele>
        <time>2010-10-17T08:56:07Z</time>
      </trkpt>
      <trkpt lat="47.17378" lon="-1.67392">
        <ele>27.5349121</ele>
        <time>2010-10-17T08:56:23Z</time>
      </trkpt>
      <trkpt lat="47.17392" lon="-1.67329">
        <ele>33.3028564</ele>
        <time>2010-10-17T08:56:37Z</time>
      </trkpt>
      <trkpt lat="47.17397" lon="-1.67254">
        <ele>37.6286621</ele>
        <time>2010-10-17T08:56:51Z</time>
      </trkpt>
      <trkpt lat="47.17402" lon="-1.6718">
        <ele>40.0321045</ele>
        <time>2010-10-17T08:57:04Z</time>
      </trkpt>
      <trkpt lat="47.17409" lon="-1.67114">
        <ele>37.1480713</ele>
        <time>2010-10-17T08:57:17Z</time>
      </trkpt>
      <trkpt lat="47.17452" lon="-1.67063">
        <ele>39.0706787</ele>
        <time>2010-10-17T08:57:29Z</time>
      </trkpt>
      <trkpt lat="47.17492" lon="-1.67016">
        <ele>38.5900879</ele>
        <time>2010-10-17T08:57:42Z</time>
      </trkpt>
      <trkpt lat="47.17532" lon="-1.66974">
        <ele>39.0706787</ele>
        <time>2010-10-17T08:57:56Z</time>
      </trkpt>
      <trkpt lat="47.17576" lon="-1.66932">
        <ele>39.0706787</ele>
        <time>2010-10-17T08:58:08Z</time>
      </trkpt>
      <trkpt lat="47.17613" lon="-1.66886">
        <ele>38.5900879</ele>
        <time>2010-10-17T08:58:19Z</time>
      </trkpt>
      <trkpt lat="47.17589" lon="-1.66832">
        <ele>36.6674805</ele>
        <time>2010-10-17T08:58:29Z</time>
      </trkpt>
      <trkpt lat="47.17559" lon="-1.66775">
        <ele>35.2254639</ele>
        <time>2010-10-17T08:58:40Z</time>
      </trkpt>
      <trkpt lat="47.17531" lon="-1.6672">
        <ele>34.744873</ele>
        <time>2010-10-17T08:58:50Z</time>
      </trkpt>
      <trkpt lat="47.17501" lon="-1.66663">
        <ele>32.3415527</ele>
        <time>2010-10-17T08:59:00Z</time>
      </trkpt>
      <trkpt lat="47.17472" lon="-1.66606">
        <ele>32.3415527</ele>
        <time>2010-10-17T08:59:09Z</time>
      </trkpt>
      <trkpt lat="47.17443" lon="-1.66554">
        <ele>32.8222656</ele>
        <time>2010-10-17T08:59:17Z</time>
      </trkpt>
      <trkpt lat="47.17414" lon="-1.66496">
        <ele>33.3028564</ele>
        <time>2010-10-17T08:59:25Z</time>
      </trkpt>
      <trkpt lat="47.17382" lon="-1.6644">
        <ele>33.3028564</ele>
        <time>2010-10-17T08:59:33Z</time>
      </trkpt>
      <trkpt lat="47.17351" lon="-1.6638">
        <ele>33.7834473</ele>
        <time>2010-10-17T08:59:41Z</time>
      </trkpt>
      <trkpt lat="47.17321" lon="-1.66325">
        <ele>32.8222656</ele>
        <time>2010-10-17T08:59:48Z</time>
      </trkpt>
      <trkpt lat="47.1729" lon="-1.6627">
        <ele>31.8607178</ele>
        <time>2010-10-17T08:59:56Z</time>
      </trkpt>
      <trkpt lat="47.1726" lon="-1.66213">
        <ele>31.380127</ele>
        <time>2010-10-17T09:00:08Z</time>
      </trkpt>
      <trkpt lat="47.17233" lon="-1.66153">
        <ele>29.4575195</ele>
        <time>2010-10-17T09:00:18Z</time>
      </trkpt>
      <trkpt lat="47.17213" lon="-1.66091">
        <ele>29.4575195</ele>
        <time>2010-10-17T09:00:27Z</time>
      </trkpt>
      <trkpt lat="47.172" lon="-1.66026">
        <ele>28.9769287</ele>
        <time>2010-10-17T09:00:35Z</time>
      </trkpt>
      <trkpt lat="47.17188" lon="-1.65959">
        <ele>29.9381104</ele>
        <time>2010-10-17T09:00:44Z</time>
      </trkpt>
      <trkpt lat="47.17176" lon="-1.65892">
        <ele>30.4188232</ele>
        <time>2010-10-17T09:00:53Z</time>
      </trkpt>
      <trkpt lat="47.17164" lon="-1.65823">
        <ele>30.4188232</ele>
        <time>2010-10-17T09:01:02Z</time>
      </trkpt>
      <trkpt lat="47.17156" lon="-1.65751">
        <ele>29.9381104</ele>
        <time>2010-10-17T09:01:11Z</time>
      </trkpt>
      <trkpt lat="47.17151" lon="-1.65687">
        <ele>29.9381104</ele>
        <time>2010-10-17T09:01:19Z</time>
      </trkpt>
      <trkpt lat="47.1715" lon="-1.65621">
        <ele>29.4575195</ele>
        <time>2010-10-17T09:01:27Z</time>
      </trkpt>
      <trkpt lat="47.17154" lon="-1.65553">
        <ele>29.4575195</ele>
        <time>2010-10-17T09:01:35Z</time>
      </trkpt>
      <trkpt lat="47.1716" lon="-1.65484">
        <ele>28.9769287</ele>
        <time>2010-10-17T09:01:44Z</time>
      </trkpt>
      <trkpt lat="47.17168" lon="-1.65418">
        <ele>28.9769287</ele>
        <time>2010-10-17T09:01:54Z</time>
      </trkpt>
      <trkpt lat="47.17175" lon="-1.6535">
        <ele>28.4962158</ele>
        <time>2010-10-17T09:02:05Z</time>
      </trkpt>
      <trkpt lat="47.17148" lon="-1.65306">
        <ele>29.4575195</ele>
        <time>2010-10-17T09:02:16Z</time>
      </trkpt>
      <trkpt lat="47.17118" lon="-1.65358">
        <ele>29.9381104</ele>
        <time>2010-10-17T09:02:29Z</time>
      </trkpt>
      <trkpt lat="47.1712" lon="-1.65427">
        <ele>32.3415527</ele>
        <time>2010-10-17T09:02:43Z</time>
      </trkpt>
      <trkpt lat="47.17114" lon="-1.65495">
        <ele>35.7060547</ele>
        <time>2010-10-17T09:02:57Z</time>
      </trkpt>
      <trkpt lat="47.17091" lon="-1.65555">
        <ele>37.1480713</ele>
        <time>2010-10-17T09:03:10Z</time>
      </trkpt>
      <trkpt lat="47.17062" lon="-1.65605">
        <ele>37.1480713</ele>
        <time>2010-10-17T09:03:22Z</time>
      </trkpt>
      <trkpt lat="47.17032" lon="-1.65658">
        <ele>35.2254639</ele>
        <time>2010-10-17T09:03:32Z</time>
      </trkpt>
      <trkpt lat="47.17007" lon="-1.65716">
        <ele>34.2641602</ele>
        <time>2010-10-17T09:03:40Z</time>
      </trkpt>
      <trkpt lat="47.16988" lon="-1.65772">
        <ele>33.3028564</ele>
        <time>2010-10-17T09:03:49Z</time>
      </trkpt>
      <trkpt lat="47.16949" lon="-1.65812">
        <ele>31.8607178</ele>
        <time>2010-10-17T09:03:58Z</time>
      </trkpt>
      <trkpt lat="47.16921" lon="-1.65868">
        <ele>31.380127</ele>
        <time>2010-10-17T09:04:07Z</time>
      </trkpt>
      <trkpt lat="47.16893" lon="-1.65925">
        <ele>30.8995361</ele>
        <time>2010-10-17T09:04:17Z</time>
      </trkpt>
      <trkpt lat="47.16855" lon="-1.65951">
        <ele>28.4962158</ele>
        <time>2010-10-17T09:04:26Z</time>
      </trkpt>
      <trkpt lat="47.1683" lon="-1.65908">
        <ele>27.0543213</ele>
        <time>2010-10-17T09:04:36Z</time>
      </trkpt>
      <trkpt lat="47.16804" lon="-1.65853">
        <ele>26.5736084</ele>
        <time>2010-10-17T09:04:45Z</time>
      </trkpt>
      <trkpt lat="47.16778" lon="-1.65795">
        <ele>26.5736084</ele>
        <time>2010-10-17T09:04:55Z</time>
      </trkpt>
      <trkpt lat="47.1674" lon="-1.65752">
        <ele>26.0928955</ele>
        <time>2010-10-17T09:05:05Z</time>
      </trkpt>
      <trkpt lat="47.16692" lon="-1.65735">
        <ele>25.1317139</ele>
        <time>2010-10-17T09:05:15Z</time>
      </trkpt>
      <trkpt lat="47.16642" lon="-1.65718">
        <ele>24.1702881</ele>
        <time>2010-10-17T09:05:25Z</time>
      </trkpt>
      <trkpt lat="47.16594" lon="-1.65701">
        <ele>21.7669678</ele>
        <time>2010-10-17T09:05:34Z</time>
      </trkpt>
      <trkpt lat="47.16546" lon="-1.65691">
        <ele>19.8443604</ele>
        <time>2010-10-17T09:05:43Z</time>
      </trkpt>
      <trkpt lat="47.16502" lon="-1.65673">
        <ele>17.9217529</ele>
        <time>2010-10-17T09:05:53Z</time>
      </trkpt>
      <trkpt lat="47.16464" lon="-1.65632">
        <ele>16.4797363</ele>
        <time>2010-10-17T09:06:03Z</time>
      </trkpt>
      <trkpt lat="47.16424" lon="-1.656">
        <ele>15.5184326</ele>
        <time>2010-10-17T09:06:12Z</time>
      </trkpt>
      <trkpt lat="47.16394" lon="-1.65542">
        <ele>15.0377197</ele>
        <time>2010-10-17T09:06:22Z</time>
      </trkpt>
      <trkpt lat="47.16365" lon="-1.65486">
        <ele>17.9217529</ele>
        <time>2010-10-17T09:06:32Z</time>
      </trkpt>
      <trkpt lat="47.16334" lon="-1.65429">
        <ele>20.3249512</ele>
        <time>2010-10-17T09:06:42Z</time>
      </trkpt>
      <trkpt lat="47.16303" lon="-1.65378">
        <ele>23.2089844</ele>
        <time>2010-10-17T09:06:52Z</time>
      </trkpt>
      <trkpt lat="47.16294" lon="-1.65305">
        <ele>25.6123047</ele>
        <time>2010-10-17T09:07:03Z</time>
      </trkpt>
      <trkpt lat="47.16292" lon="-1.65232">
        <ele>28.0155029</ele>
        <time>2010-10-17T09:07:12Z</time>
      </trkpt>
      <trkpt lat="47.1629" lon="-1.6516">
        <ele>27.5349121</ele>
        <time>2010-10-17T09:07:21Z</time>
      </trkpt>
      <trkpt lat="47.16287" lon="-1.65091">
        <ele>26.5736084</ele>
        <time>2010-10-17T09:07:31Z</time>
      </trkpt>
      <trkpt lat="47.16284" lon="-1.65023">
        <ele>26.5736084</ele>
        <time>2010-10-17T09:07:41Z</time>
      </trkpt>
      <trkpt lat="47.16251" lon="-1.64999">
        <ele>26.5736084</ele>
        <time>2010-10-17T09:07:51Z</time>
      </trkpt>
      <trkpt lat="47.16207" lon="-1.65015">
        <ele>25.1317139</ele>
        <time>2010-10-17T09:08:00Z</time>
      </trkpt>
      <trkpt lat="47.1616" lon="-1.65031">
        <ele>25.6123047</ele>
        <time>2010-10-17T09:08:10Z</time>
      </trkpt>
      <trkpt lat="47.16115" lon="-1.65009">
        <ele>23.2089844</ele>
        <time>2010-10-17T09:08:21Z</time>
      </trkpt>
      <trkpt lat="47.16074" lon="-1.64981">
        <ele>21.7669678</ele>
        <time>2010-10-17T09:08:37Z</time>
      </trkpt>
      <trkpt lat="47.16034" lon="-1.64946">
        <ele>20.3249512</ele>
        <time>2010-10-17T09:08:51Z</time>
      </trkpt>
      <trkpt lat="47.16022" lon="-1.64881">
        <ele>20.3249512</ele>
        <time>2010-10-17T09:09:05Z</time>
      </trkpt>
      <trkpt lat="47.16027" lon="-1.64812">
        <ele>19.3637695</ele>
        <time>2010-10-17T09:09:19Z</time>
      </trkpt>
      <trkpt lat="47.16033" lon="-1.64745">
        <ele>18.8830566</ele>
        <time>2010-10-17T09:09:33Z</time>
      </trkpt>
      <trkpt lat="47.16015" lon="-1.64682">
        <ele>20.8056641</ele>
        <time>2010-10-17T09:09:46Z</time>
      </trkpt>
      <trkpt lat="47.15995" lon="-1.64618">
        <ele>20.3249512</ele>
        <time>2010-10-17T09:09:58Z</time>
      </trkpt>
      <trkpt lat="47.15973" lon="-1.64555">
        <ele>21.7669678</ele>
        <time>2010-10-17T09:10:10Z</time>
      </trkpt>
      <trkpt lat="47.15964" lon="-1.6449">
        <ele>22.2475586</ele>
        <time>2010-10-17T09:10:21Z</time>
      </trkpt>
      <trkpt lat="47.15961" lon="-1.64428">
        <ele>22.7282715</ele>
        <time>2010-10-17T09:10:31Z</time>
      </trkpt>
      <trkpt lat="47.15998" lon="-1.64383">
        <ele>22.7282715</ele>
        <time>2010-10-17T09:10:39Z</time>
      </trkpt>
      <trkpt lat="47.16033" lon="-1.64337">
        <ele>21.7669678</ele>
        <time>2010-10-17T09:10:48Z</time>
      </trkpt>
      <trkpt lat="47.16074" lon="-1.64303">
        <ele>22.2475586</ele>
        <time>2010-10-17T09:10:58Z</time>
      </trkpt>
      <trkpt lat="47.16111" lon="-1.64259">
        <ele>23.2089844</ele>
        <time>2010-10-17T09:11:07Z</time>
      </trkpt>
      <trkpt lat="47.16136" lon="-1.6419">
        <ele>24.651001</ele>
        <time>2010-10-17T09:11:17Z</time>
      </trkpt>
      <trkpt lat="47.16155" lon="-1.64121">
        <ele>26.5736084</ele>
        <time>2010-10-17T09:11:27Z</time>
      </trkpt>
      <trkpt lat="47.16191" lon="-1.64076">
        <ele>29.4575195</ele>
        <time>2010-10-17T09:11:36Z</time>
      </trkpt>
      <trkpt lat="47.1623" lon="-1.64033">
        <ele>29.9381104</ele>
        <time>2010-10-17T09:11:47Z</time>
      </trkpt>
      <trkpt lat="47.16273" lon="-1.64001">
        <ele>30.8995361</ele>
        <time>2010-10-17T09:12:00Z</time>
      </trkpt>
      <trkpt lat="47.16317" lon="-1.63973">
        <ele>30.8995361</ele>
        <time>2010-10-17T09:12:12Z</time>
      </trkpt>
      <trkpt lat="47.16361" lon="-1.63939">
        <ele>32.3415527</ele>
        <time>2010-10-17T09:12:24Z</time>
      </trkpt>
      <trkpt lat="47.16409" lon="-1.63907">
        <ele>35.7060547</ele>
        <time>2010-10-17T09:12:36Z</time>
      </trkpt>
      <trkpt lat="47.16455" lon="-1.63879">
        <ele>34.744873</ele>
        <time>2010-10-17T09:12:46Z</time>
      </trkpt>
      <trkpt lat="47.16488" lon="-1.63842">
        <ele>34.2641602</ele>
        <time>2010-10-17T09:12:59Z</time>
      </trkpt>
      <trkpt lat="47.16469" lon="-1.6378">
        <ele>37.1480713</ele>
        <time>2010-10-17T09:13:29Z</time>
      </trkpt>
      <trkpt lat="47.16452" lon="-1.63713">
        <ele>34.744873</ele>
        <time>2010-10-17T09:13:52Z</time>
      </trkpt>
      <trkpt lat="47.16426" lon="-1.63651">
        <ele>31.8607178</ele>
        <time>2010-10-17T09:14:08Z</time>
      </trkpt>
      <trkpt lat="47.16404" lon="-1.63588">
        <ele>30.4188232</ele>
        <time>2010-10-17T09:14:21Z</time>
      </trkpt>
      <trkpt lat="47.16365" lon="-1.6357">
        <ele>28.4962158</ele>
        <time>2010-10-17T09:15:27Z</time>
      </trkpt>
      <trkpt lat="47.16327" lon="-1.63543">
        <ele>27.5349121</ele>
        <time>2010-10-17T09:15:46Z</time>
      </trkpt>
      <trkpt lat="47.16293" lon="-1.63498">
        <ele>26.5736084</ele>
        <time>2010-10-17T09:15:58Z</time>
      </trkpt>
      <trkpt lat="47.16259" lon="-1.63449">
        <ele>26.5736084</ele>
        <time>2010-10-17T09:16:09Z</time>
      </trkpt>
      <trkpt lat="47.16234" lon="-1.63389">
        <ele>26.0928955</ele>
        <time>2010-10-17T09:16:21Z</time>
      </trkpt>
      <trkpt lat="47.16213" lon="-1.63324">
        <ele>26.5736084</ele>
        <time>2010-10-17T09:16:32Z</time>
      </trkpt>
      <trkpt lat="47.16198" lon="-1.63256">
        <ele>27.0543213</ele>
        <time>2010-10-17T09:16:42Z</time>
      </trkpt>
      <trkpt lat="47.16179" lon="-1.6319">
        <ele>27.0543213</ele>
        <time>2010-10-17T09:16:52Z</time>
      </trkpt>
      <trkpt lat="47.16157" lon="-1.63129">
        <ele>27.0543213</ele>
        <time>2010-10-17T09:17:02Z</time>
      </trkpt>
      <trkpt lat="47.16146" lon="-1.63061">
        <ele>26.0928955</ele>
        <time>2010-10-17T09:17:12Z</time>
      </trkpt>
      <trkpt lat="47.16172" lon="-1.62997">
        <ele>22.7282715</ele>
        <time>2010-10-17T09:17:22Z</time>
      </trkpt>
      <trkpt lat="47.16196" lon="-1.62939">
        <ele>24.651001</ele>
        <time>2010-10-17T09:17:37Z</time>
      </trkpt>
      <trkpt lat="47.16224" lon="-1.62881">
        <ele>28.9769287</ele>
        <time>2010-10-17T09:17:52Z</time>
      </trkpt>
      <trkpt lat="47.16263" lon="-1.62836">
        <ele>28.9769287</ele>
        <time>2010-10-17T09:18:06Z</time>
      </trkpt>
      <trkpt lat="47.16298" lon="-1.62787">
        <ele>29.4575195</ele>
        <time>2010-10-17T09:18:19Z</time>
      </trkpt>
      <trkpt lat="47.16298" lon="-1.6272">
        <ele>29.4575195</ele>
        <time>2010-10-17T09:18:33Z</time>
      </trkpt>
      <trkpt lat="47.16309" lon="-1.62653">
        <ele>28.0155029</ele>
        <time>2010-10-17T09:18:46Z</time>
      </trkpt>
      <trkpt lat="47.16322" lon="-1.62588">
        <ele>26.0928955</ele>
        <time>2010-10-17T09:18:59Z</time>
      </trkpt>
      <trkpt lat="47.16361" lon="-1.62583">
        <ele>25.6123047</ele>
        <time>2010-10-17T09:19:12Z</time>
      </trkpt>
      <trkpt lat="47.16404" lon="-1.6255">
        <ele>25.6123047</ele>
        <time>2010-10-17T09:19:25Z</time>
      </trkpt>
      <trkpt lat="47.16443" lon="-1.6251">
        <ele>24.1702881</ele>
        <time>2010-10-17T09:19:36Z</time>
      </trkpt>
      <trkpt lat="47.16483" lon="-1.62474">
        <ele>21.286377</ele>
        <time>2010-10-17T09:19:46Z</time>
      </trkpt>
      <trkpt lat="47.16518" lon="-1.62429">
        <ele>20.8056641</ele>
        <time>2010-10-17T09:19:56Z</time>
      </trkpt>
      <trkpt lat="47.1655" lon="-1.62381">
        <ele>19.3637695</ele>
        <time>2010-10-17T09:20:05Z</time>
      </trkpt>
      <trkpt lat="47.16588" lon="-1.62337">
        <ele>17.9217529</ele>
        <time>2010-10-17T09:20:16Z</time>
      </trkpt>
      <trkpt lat="47.1662" lon="-1.62289">
        <ele>17.4411621</ele>
        <time>2010-10-17T09:20:27Z</time>
      </trkpt>
      <trkpt lat="47.16652" lon="-1.62238">
        <ele>18.4023438</ele>
        <time>2010-10-17T09:20:39Z</time>
      </trkpt>
      <trkpt lat="47.16686" lon="-1.62187">
        <ele>18.4023438</ele>
        <time>2010-10-17T09:20:51Z</time>
      </trkpt>
      <trkpt lat="47.16717" lon="-1.62139">
        <ele>18.4023438</ele>
        <time>2010-10-17T09:21:02Z</time>
      </trkpt>
      <trkpt lat="47.16749" lon="-1.62089">
        <ele>19.3637695</ele>
        <time>2010-10-17T09:21:13Z</time>
      </trkpt>
      <trkpt lat="47.16772" lon="-1.62028">
        <ele>20.3249512</ele>
        <time>2010-10-17T09:21:24Z</time>
      </trkpt>
      <trkpt lat="47.16757" lon="-1.61964">
        <ele>20.8056641</ele>
        <time>2010-10-17T09:21:36Z</time>
      </trkpt>
      <trkpt lat="47.16791" lon="-1.61917">
        <ele>18.8830566</ele>
        <time>2010-10-17T09:21:46Z</time>
      </trkpt>
      <trkpt lat="47.16831" lon="-1.61876">
        <ele>17.9217529</ele>
        <time>2010-10-17T09:21:57Z</time>
      </trkpt>
      <trkpt lat="47.1687" lon="-1.6184">
        <ele>16.9604492</ele>
        <time>2010-10-17T09:22:07Z</time>
      </trkpt>
      <trkpt lat="47.16912" lon="-1.61804">
        <ele>16.9604492</ele>
        <time>2010-10-17T09:22:18Z</time>
      </trkpt>
      <trkpt lat="47.1695" lon="-1.61762">
        <ele>16.4797363</ele>
        <time>2010-10-17T09:22:29Z</time>
      </trkpt>
      <trkpt lat="47.16983" lon="-1.61704">
        <ele>17.4411621</ele>
        <time>2010-10-17T09:22:40Z</time>
      </trkpt>
      <trkpt lat="47.17" lon="-1.61638">
        <ele>16.4797363</ele>
        <time>2010-10-17T09:22:50Z</time>
      </trkpt>
      <trkpt lat="47.17017" lon="-1.61579">
        <ele>14.5570068</ele>
        <time>2010-10-17T09:23:05Z</time>
      </trkpt>
      <trkpt lat="47.17001" lon="-1.61517">
        <ele>13.5958252</ele>
        <time>2010-10-17T09:23:15Z</time>
      </trkpt>
      <trkpt lat="47.16964" lon="-1.61488">
        <ele>13.1151123</ele>
        <time>2010-10-17T09:23:27Z</time>
      </trkpt>
      <trkpt lat="47.16919" lon="-1.61496">
        <ele>11.6732178</ele>
        <time>2010-10-17T09:23:35Z</time>
      </trkpt>
      <trkpt lat="47.1687" lon="-1.61487">
        <ele>8.3085938</ele>
        <time>2010-10-17T09:23:43Z</time>
      </trkpt>
      <trkpt lat="47.16831" lon="-1.61441">
        <ele>6.8664551</ele>
        <time>2010-10-17T09:23:52Z</time>
      </trkpt>
      <trkpt lat="47.16811" lon="-1.6138">
        <ele>6.8664551</ele>
        <time>2010-10-17T09:24:03Z</time>
      </trkpt>
      <trkpt lat="47.16826" lon="-1.61315">
        <ele>5.4245605</ele>
        <time>2010-10-17T09:24:13Z</time>
      </trkpt>
      <trkpt lat="47.16811" lon="-1.61262">
        <ele>8.7891846</ele>
        <time>2010-10-17T09:24:25Z</time>
      </trkpt>
      <trkpt lat="47.16767" lon="-1.61232">
        <ele>10.2312012</ele>
        <time>2010-10-17T09:24:36Z</time>
      </trkpt>
      <trkpt lat="47.16725" lon="-1.61204">
        <ele>12.6343994</ele>
        <time>2010-10-17T09:24:48Z</time>
      </trkpt>
      <trkpt lat="47.16681" lon="-1.61174">
        <ele>17.9217529</ele>
        <time>2010-10-17T09:25:01Z</time>
      </trkpt>
      <trkpt lat="47.16641" lon="-1.61144">
        <ele>18.8830566</ele>
        <time>2010-10-17T09:25:19Z</time>
      </trkpt>
      <trkpt lat="47.16604" lon="-1.61098">
        <ele>21.286377</ele>
        <time>2010-10-17T09:25:40Z</time>
      </trkpt>
      <trkpt lat="47.16613" lon="-1.61042">
        <ele>22.2475586</ele>
        <time>2010-10-17T09:26:19Z</time>
      </trkpt>
      <trkpt lat="47.16629" lon="-1.6099">
        <ele>22.2475586</ele>
        <time>2010-10-17T09:26:44Z</time>
      </trkpt>
      <trkpt lat="47.16658" lon="-1.60959">
        <ele>21.7669678</ele>
        <time>2010-10-17T09:27:05Z</time>
      </trkpt>
      <trkpt lat="47.16698" lon="-1.60922">
        <ele>20.3249512</ele>
        <time>2010-10-17T09:27:24Z</time>
      </trkpt>
      <trkpt lat="47.16744" lon="-1.60899">
        <ele>21.7669678</ele>
        <time>2010-10-17T09:27:38Z</time>
      </trkpt>
      <trkpt lat="47.16784" lon="-1.60857">
        <ele>21.286377</ele>
        <time>2010-10-17T09:27:51Z</time>
      </trkpt>
      <trkpt lat="47.16829" lon="-1.60844">
        <ele>21.286377</ele>
        <time>2010-10-17T09:28:04Z</time>
      </trkpt>
      <trkpt lat="47.16871" lon="-1.6087">
        <ele>20.3249512</ele>
        <time>2010-10-17T09:28:14Z</time>
      </trkpt>
      <trkpt lat="47.16915" lon="-1.60866">
        <ele>20.8056641</ele>
        <time>2010-10-17T09:28:24Z</time>
      </trkpt>
      <trkpt lat="47.16954" lon="-1.60829">
        <ele>20.3249512</ele>
        <time>2010-10-17T09:28:34Z</time>
      </trkpt>
      <trkpt lat="47.16989" lon="-1.60784">
        <ele>19.8443604</ele>
        <time>2010-10-17T09:28:44Z</time>
      </trkpt>
      <trkpt lat="47.17029" lon="-1.60749">
        <ele>18.8830566</ele>
        <time>2010-10-17T09:28:55Z</time>
      </trkpt>
      <trkpt lat="47.17072" lon="-1.60719">
        <ele>20.3249512</ele>
        <time>2010-10-17T09:29:06Z</time>
      </trkpt>
      <trkpt lat="47.17117" lon="-1.60691">
        <ele>21.286377</ele>
        <time>2010-10-17T09:29:18Z</time>
      </trkpt>
      <trkpt lat="47.1716" lon="-1.60664">
        <ele>20.8056641</ele>
        <time>2010-10-17T09:29:30Z</time>
      </trkpt>
      <trkpt lat="47.17204" lon="-1.60642">
        <ele>20.8056641</ele>
        <time>2010-10-17T09:29:53Z</time>
      </trkpt>
      <trkpt lat="47.17252" lon="-1.60624">
        <ele>21.286377</ele>
        <time>2010-10-17T09:30:08Z</time>
      </trkpt>
      <trkpt lat="47.17298" lon="-1.60602">
        <ele>22.2475586</ele>
        <time>2010-10-17T09:30:20Z</time>
      </trkpt>
      <trkpt lat="47.17337" lon="-1.60566">
        <ele>22.7282715</ele>
        <time>2010-10-17T09:30:32Z</time>
      </trkpt>
      <trkpt lat="47.17375" lon="-1.60525">
        <ele>22.2475586</ele>
        <time>2010-10-17T09:30:46Z</time>
      </trkpt>
      <trkpt lat="47.17413" lon="-1.60484">
        <ele>22.2475586</ele>
        <time>2010-10-17T09:31:01Z</time>
      </trkpt>
      <trkpt lat="47.17449" lon="-1.60441">
        <ele>21.286377</ele>
        <time>2010-10-17T09:31:15Z</time>
      </trkpt>
      <trkpt lat="47.17491" lon="-1.60415">
        <ele>19.8443604</ele>
        <time>2010-10-17T09:31:30Z</time>
      </trkpt>
      <trkpt lat="47.17533" lon="-1.60387">
        <ele>18.8830566</ele>
        <time>2010-10-17T09:31:44Z</time>
      </trkpt>
      <trkpt lat="47.17574" lon="-1.60382">
        <ele>17.9217529</ele>
        <time>2010-10-17T09:33:27Z</time>
      </trkpt>
      <trkpt lat="47.17615" lon="-1.60413">
        <ele>17.4411621</ele>
        <time>2010-10-17T09:33:38Z</time>
      </trkpt>
      <trkpt lat="47.1765" lon="-1.60376">
        <ele>18.4023438</ele>
        <time>2010-10-17T09:34:04Z</time>
      </trkpt>
      <trkpt lat="47.17684" lon="-1.60327">
        <ele>18.8830566</ele>
        <time>2010-10-17T09:34:18Z</time>
      </trkpt>
      <trkpt lat="47.17718" lon="-1.60278">
        <ele>17.4411621</ele>
        <time>2010-10-17T09:34:32Z</time>
      </trkpt>
      <trkpt lat="47.17756" lon="-1.60276">
        <ele>16.4797363</ele>
        <time>2010-10-17T09:34:45Z</time>
      </trkpt>
      <trkpt lat="47.17794" lon="-1.60319">
        <ele>15.0377197</ele>
        <time>2010-10-17T09:34:55Z</time>
      </trkpt>
      <trkpt lat="47.17832" lon="-1.60365">
        <ele>13.1151123</ele>
        <time>2010-10-17T09:35:03Z</time>
      </trkpt>
      <trkpt lat="47.1787" lon="-1.60401">
        <ele>10.711792</ele>
        <time>2010-10-17T09:35:09Z</time>
      </trkpt>
      <trkpt lat="47.17906" lon="-1.60452">
        <ele>6.8664551</ele>
        <time>2010-10-17T09:35:15Z</time>
      </trkpt>
      <trkpt lat="47.17895" lon="-1.60519">
        <ele>4.4632568</ele>
        <time>2010-10-17T09:35:21Z</time>
      </trkpt>
      <trkpt lat="47.17875" lon="-1.6058">
        <ele>0.618042</ele>
        <time>2010-10-17T09:35:27Z</time>
      </trkpt>
      <trkpt lat="47.17852" lon="-1.60645">
        <ele>-2.2659912</ele>
        <time>2010-10-17T09:35:35Z</time>
      </trkpt>
      <trkpt lat="47.17826" lon="-1.60708">
        <ele>-5.6304932</ele>
        <time>2010-10-17T09:35:45Z</time>
      </trkpt>
      <trkpt lat="47.17802" lon="-1.60775">
        <ele>-10.9178467</ele>
        <time>2010-10-17T09:35:55Z</time>
      </trkpt>
      <trkpt lat="47.17769" lon="-1.60827">
        <ele>-9.956543</ele>
        <time>2010-10-17T09:36:05Z</time>
      </trkpt>
      <trkpt lat="47.17754" lon="-1.60878">
        <ele>-3.7078857</ele>
        <time>2010-10-17T09:36:18Z</time>
      </trkpt>
      <trkpt lat="47.17747" lon="-1.60929">
        <ele>-0.3433838</ele>
        <time>2010-10-17T09:36:31Z</time>
      </trkpt>
      <trkpt lat="47.17708" lon="-1.60963">
        <ele>1.0986328</ele>
        <time>2010-10-17T09:36:41Z</time>
      </trkpt>
      <trkpt lat="47.17668" lon="-1.60947">
        <ele>-0.3433838</ele>
        <time>2010-10-17T09:36:50Z</time>
      </trkpt>
      <trkpt lat="47.17634" lon="-1.60915">
        <ele>-0.3433838</ele>
        <time>2010-10-17T09:36:59Z</time>
      </trkpt>
      <trkpt lat="47.17584" lon="-1.60904">
        <ele>0.1374512</ele>
        <time>2010-10-17T09:37:08Z</time>
      </trkpt>
      <trkpt lat="47.17536" lon="-1.60893">
        <ele>1.0986328</ele>
        <time>2010-10-17T09:37:17Z</time>
      </trkpt>
      <trkpt lat="47.17492" lon="-1.6088">
        <ele>2.0600586</ele>
        <time>2010-10-17T09:37:26Z</time>
      </trkpt>
      <trkpt lat="47.17444" lon="-1.60883">
        <ele>3.5019531</ele>
        <time>2010-10-17T09:37:36Z</time>
      </trkpt>
      <trkpt lat="47.17408" lon="-1.60914">
        <ele>4.4632568</ele>
        <time>2010-10-17T09:37:46Z</time>
      </trkpt>
      <trkpt lat="47.17415" lon="-1.6098">
        <ele>7.347168</ele>
        <time>2010-10-17T09:37:56Z</time>
      </trkpt>
      <trkpt lat="47.17424" lon="-1.61045">
        <ele>8.3085938</ele>
        <time>2010-10-17T09:38:07Z</time>
      </trkpt>
      <trkpt lat="47.17448" lon="-1.61105">
        <ele>10.2312012</ele>
        <time>2010-10-17T09:38:19Z</time>
      </trkpt>
      <trkpt lat="47.17472" lon="-1.61166">
        <ele>12.6343994</ele>
        <time>2010-10-17T09:38:31Z</time>
      </trkpt>
      <trkpt lat="47.17498" lon="-1.61228">
        <ele>13.5958252</ele>
        <time>2010-10-17T09:38:43Z</time>
      </trkpt>
      <trkpt lat="47.17527" lon="-1.61279">
        <ele>14.076416</ele>
        <time>2010-10-17T09:38:54Z</time>
      </trkpt>
      <trkpt lat="47.17565" lon="-1.61311">
        <ele>14.5570068</ele>
        <time>2010-10-17T09:39:05Z</time>
      </trkpt>
      <trkpt lat="47.17538" lon="-1.6135">
        <ele>14.076416</ele>
        <time>2010-10-17T09:39:16Z</time>
      </trkpt>
      <trkpt lat="47.17533" lon="-1.61297">
        <ele>14.5570068</ele>
        <time>2010-10-17T09:39:26Z</time>
      </trkpt>
      <trkpt lat="47.17581" lon="-1.61301">
        <ele>14.076416</ele>
        <time>2010-10-17T09:39:36Z</time>
      </trkpt>
      <trkpt lat="47.17631" lon="-1.61313">
        <ele>12.6343994</ele>
        <time>2010-10-17T09:39:45Z</time>
      </trkpt>
      <trkpt lat="47.17678" lon="-1.61329">
        <ele>10.711792</ele>
        <time>2010-10-17T09:39:52Z</time>
      </trkpt>
      <trkpt lat="47.17705" lon="-1.61285">
        <ele>9.7506104</ele>
        <time>2010-10-17T09:40:00Z</time>
      </trkpt>
      <trkpt lat="47.17713" lon="-1.61212">
        <ele>8.7891846</ele>
        <time>2010-10-17T09:40:08Z</time>
      </trkpt>
      <trkpt lat="47.17721" lon="-1.61138">
        <ele>7.347168</ele>
        <time>2010-10-17T09:40:16Z</time>
      </trkpt>
      <trkpt lat="47.17724" lon="-1.61066">
        <ele>4.9438477</ele>
        <time>2010-10-17T09:40:25Z</time>
      </trkpt>
      <trkpt lat="47.17745" lon="-1.60999">
        <ele>4.4632568</ele>
        <time>2010-10-17T09:40:34Z</time>
      </trkpt>
      <trkpt lat="47.17788" lon="-1.60966">
        <ele>3.5019531</ele>
        <time>2010-10-17T09:40:42Z</time>
      </trkpt>
      <trkpt lat="47.1783" lon="-1.60951">
        <ele>1.5793457</ele>
        <time>2010-10-17T09:40:49Z</time>
      </trkpt>
      <trkpt lat="47.17856" lon="-1.61005">
        <ele>1.5793457</ele>
        <time>2010-10-17T09:40:56Z</time>
      </trkpt>
      <trkpt lat="47.17885" lon="-1.6106">
        <ele>0.618042</ele>
        <time>2010-10-17T09:41:03Z</time>
      </trkpt>
      <trkpt lat="47.1789" lon="-1.61127">
        <ele>0.618042</ele>
        <time>2010-10-17T09:41:10Z</time>
      </trkpt>
      <trkpt lat="47.17889" lon="-1.61193">
        <ele>0.618042</ele>
        <time>2010-10-17T09:41:17Z</time>
      </trkpt>
      <trkpt lat="47.17919" lon="-1.61246">
        <ele>0.1374512</ele>
        <time>2010-10-17T09:41:25Z</time>
      </trkpt>
      <trkpt lat="47.17954" lon="-1.61299">
        <ele>0.618042</ele>
        <time>2010-10-17T09:41:33Z</time>
      </trkpt>
      <trkpt lat="47.17962" lon="-1.61368">
        <ele>1.0986328</ele>
        <time>2010-10-17T09:41:41Z</time>
      </trkpt>
      <trkpt lat="47.17982" lon="-1.61423">
        <ele>1.5793457</ele>
        <time>2010-10-17T09:41:49Z</time>
      </trkpt>
      <trkpt lat="47.18016" lon="-1.61464">
        <ele>3.0212402</ele>
        <time>2010-10-17T09:41:57Z</time>
      </trkpt>
      <trkpt lat="47.18012" lon="-1.6153">
        <ele>3.5019531</ele>
        <time>2010-10-17T09:42:04Z</time>
      </trkpt>
      <trkpt lat="47.18009" lon="-1.61603">
        <ele>4.4632568</ele>
        <time>2010-10-17T09:42:11Z</time>
      </trkpt>
      <trkpt lat="47.18004" lon="-1.61657">
        <ele>5.4245605</ele>
        <time>2010-10-17T09:42:22Z</time>
      </trkpt>
      <trkpt lat="47.17963" lon="-1.61682">
        <ele>4.4632568</ele>
        <time>2010-10-17T09:42:31Z</time>
      </trkpt>
      <trkpt lat="47.17968" lon="-1.61752">
        <ele>4.4632568</ele>
        <time>2010-10-17T09:42:39Z</time>
      </trkpt>
      <trkpt lat="47.17979" lon="-1.61823">
        <ele>5.9052734</ele>
        <time>2010-10-17T09:42:47Z</time>
      </trkpt>
      <trkpt lat="47.1801" lon="-1.61872">
        <ele>7.8278809</ele>
        <time>2010-10-17T09:42:56Z</time>
      </trkpt>
      <trkpt lat="47.1803" lon="-1.61924">
        <ele>7.8278809</ele>
        <time>2010-10-17T09:43:06Z</time>
      </trkpt>
      <trkpt lat="47.1805" lon="-1.61984">
        <ele>5.9052734</ele>
        <time>2010-10-17T09:43:16Z</time>
      </trkpt>
      <trkpt lat="47.1808" lon="-1.62043">
        <ele>5.9052734</ele>
        <time>2010-10-17T09:43:24Z</time>
      </trkpt>
      <trkpt lat="47.18095" lon="-1.62106">
        <ele>5.9052734</ele>
        <time>2010-10-17T09:43:31Z</time>
      </trkpt>
      <trkpt lat="47.18099" lon="-1.62172">
        <ele>5.4245605</ele>
        <time>2010-10-17T09:43:39Z</time>
      </trkpt>
      <trkpt lat="47.18075" lon="-1.62224">
        <ele>5.4245605</ele>
        <time>2010-10-17T09:43:51Z</time>
      </trkpt>
      <trkpt lat="47.18088" lon="-1.62283">
        <ele>5.9052734</ele>
        <time>2010-10-17T09:44:05Z</time>
      </trkpt>
      <trkpt lat="47.18068" lon="-1.62324">
        <ele>6.8664551</ele>
        <time>2010-10-17T09:44:20Z</time>
      </trkpt>
      <trkpt lat="47.18023" lon="-1.62341">
        <ele>16.9604492</ele>
        <time>2010-10-17T09:44:36Z</time>
      </trkpt>
      <trkpt lat="47.17978" lon="-1.62354">
        <ele>27.0543213</ele>
        <time>2010-10-17T09:44:50Z</time>
      </trkpt>
      <trkpt lat="47.17933" lon="-1.62364">
        <ele>29.4575195</ele>
        <time>2010-10-17T09:45:50Z</time>
      </trkpt>
      <trkpt lat="47.17886" lon="-1.6238">
        <ele>28.9769287</ele>
        <time>2010-10-17T09:46:04Z</time>
      </trkpt>
      <trkpt lat="47.17844" lon="-1.62355">
        <ele>31.380127</ele>
        <time>2010-10-17T09:46:18Z</time>
      </trkpt>
      <trkpt lat="47.178" lon="-1.6233">
        <ele>28.9769287</ele>
        <time>2010-10-17T09:46:28Z</time>
      </trkpt>
      <trkpt lat="47.17753" lon="-1.6231">
        <ele>28.0155029</ele>
        <time>2010-10-17T09:46:38Z</time>
      </trkpt>
      <trkpt lat="47.17717" lon="-1.6228">
        <ele>27.0543213</ele>
        <time>2010-10-17T09:46:50Z</time>
      </trkpt>
      <trkpt lat="47.17724" lon="-1.62221">
        <ele>26.5736084</ele>
        <time>2010-10-17T09:47:30Z</time>
      </trkpt>
      <trkpt lat="47.17729" lon="-1.62222">
        <ele>26.5736084</ele>
        <time>2010-10-17T09:47:37Z</time>
      </trkpt>
    </trkseg>
  </trk>
</gpx>